M I D A S
Marine Information and Data Acquisition System
Tripno 1915 of the Zeeleeuw from 2010-07-07 06:55:27 to 2010-07-07 13:12:15
Back to CruiseResearch ActivitiesStationsMapUnderway DataData graphs

EquipmentUnitsComment
TimeDGPSUTC
LatitudeDGPSDM.mWGS84
LongitudeDGPSDM.mWGS84
TemperatureSBE03/SBE38deg celciusITS90
ConductivitySBE21S/mITS90
SalinitySBE21 Practical Salinity Units
ChlorophylAChelsea fluorimeterg/lCalibrated in Aceton
Missing or incorrect values are displayed as -999
Sea surface data collected by the RV Zeeleeuw from 2010-07-07 06:49:23 to 2010-07-07 13:18:48
                                                                                    Next 1000 lines
Time Latitude Longitude Temperature Conductivity Salinity ChlorophylA
2010-07-07 06:49:33 51°13.662 2°55.957 22.5729 0.071196 0.373299 -1.000568
2010-07-07 06:49:38 51°13.663 2°55.954 22.5714 0.071196 0.373305 -1.000568
2010-07-07 06:49:43 51°13.664 2°55.95 22.5749 0.071196 0.373305 -1.000568
2010-07-07 06:49:47 51°13.665 2°55.947 22.5718 0.071196 0.373305 -1.000568
2010-07-07 06:49:54 51°13.667 2°55.94 22.5752 0.071092 0.372748 -1.000568
2010-07-07 06:49:59 51°13.668 2°55.935 22.572 0.071196 0.373305 -1.000568
2010-07-07 06:50:05 51°13.671 2°55.928 22.5744 0.071196 0.373305 -1.000568
2010-07-07 06:50:11 51°13.673 2°55.92 22.5715 0.071196 0.373311 -1.000568
2010-07-07 06:50:17 51°13.676 2°55.912 22.576 0.071196 0.373322 -1.035392
2010-07-07 06:50:22 51°13.679 2°55.904 22.576 0.071196 0.373322 -1.000568
2010-07-07 06:50:27 51°13.682 2°55.896 22.5778 0.071196 0.373333 -1.000568
2010-07-07 06:50:31 51°13.684 2°55.89 22.5769 0.071092 0.372782 -1.000568
2010-07-07 06:50:37 51°13.688 2°55.88 22.5777 0.071092 0.372782 -1.000568
2010-07-07 06:50:42 51°13.691 2°55.871 22.5767 0.071196 0.373345 -1.000568
2010-07-07 06:50:47 51°13.693 2°55.863 22.5789 0.071196 0.373356 -1.000568
2010-07-07 06:50:51 51°13.696 2°55.856 22.5785 0.071196 0.373356 -1.000568
2010-07-07 06:50:57 51°13.699 2°55.846 22.5784 0.071196 0.373362 -1.000568
2010-07-07 06:51:02 51°13.703 2°55.837 22.5809 0.071092 0.372799 -1.000568
2010-07-07 06:51:07 51°13.707 2°55.829 22.5806 0.071092 0.372799 -1.000568
2010-07-07 06:51:11 51°13.71 2°55.821 22.5811 0.071196 0.373367 -0.965744
2010-07-07 06:51:17 51°13.714 2°55.81 22.5816 0.071196 0.373362 -1.000568
2010-07-07 06:51:22 51°13.718 2°55.801 22.5832 0.071092 0.37281 -1.035392
2010-07-07 06:51:27 51°13.723 2°55.791 22.5814 0.071092 0.372816 -1.000568
2010-07-07 06:51:32 51°13.727 2°55.782 22.5833 0.071196 0.373384 -1.000568
2010-07-07 06:51:37 51°13.731 2°55.773 22.5828 0.071196 0.373384 -1.000568
2010-07-07 06:51:42 51°13.736 2°55.765 22.5834 0.071092 0.372833 -1.000568
2010-07-07 06:51:47 51°13.74 2°55.756 22.5826 0.071092 0.372833 -1.000568
2010-07-07 06:51:52 51°13.745 2°55.748 22.5825 0.071092 0.372839 -1.035392
2010-07-07 06:51:57 51°13.75 2°55.74 22.5838 0.071092 0.372844 -0.965744
2010-07-07 06:52:02 51°13.755 2°55.731 22.585 0.071092 0.372856 -1.000568
2010-07-07 06:52:07 51°13.76 2°55.723 22.5842 0.071092 0.372856 -1.000568
2010-07-07 06:52:12 51°13.766 2°55.715 22.5852 0.071196 0.373419 -1.000568
2010-07-07 06:52:17 51°13.772 2°55.707 22.5879 0.071092 0.372861 -1.000568
2010-07-07 06:52:22 51°13.777 2°55.699 22.5858 0.071092 0.372867 -1.000568
2010-07-07 06:52:27 51°13.783 2°55.692 22.5851 0.071092 0.372873 -1.000568
2010-07-07 06:52:31 51°13.787 2°55.686 22.5874 0.071092 0.372884 -1.035392
2010-07-07 06:52:37 51°13.794 2°55.679 22.5864 0.071092 0.372884 -1.035392
2010-07-07 06:52:42 51°13.8 2°55.673 22.5873 0.071092 0.372878 -1.035392
2010-07-07 06:52:47 51°13.806 2°55.667 22.5871 0.071092 0.37289 -1.000568
2010-07-07 06:52:51 51°13.811 2°55.663 22.5862 0.071092 0.372901 -1.000568
2010-07-07 06:52:57 51°13.819 2°55.658 22.587 0.071092 0.372901 -1.000568
2010-07-07 06:53:02 51°13.825 2°55.653 22.589 0.071092 0.372901 -1.000568
2010-07-07 06:53:07 51°13.832 2°55.649 22.5887 0.071092 0.372901 -1.000568
2010-07-07 06:53:12 51°13.838 2°55.645 22.5887 0.071092 0.372901 -0.965744
2010-07-07 06:53:17 51°13.845 2°55.642 22.5896 0.071092 0.372907 -1.035392
2010-07-07 06:53:22 51°13.852 2°55.639 22.4609 0.071092 0.372912 -1.035392
2010-07-07 06:53:27 51°13.858 2°55.637 21.8596 0.071092 0.372929 -1.000568
2010-07-07 06:53:31 51°13.864 2°55.635 21.3129 0.071092 0.372793 -1.000568
2010-07-07 06:53:37 51°13.872 2°55.633 20.978 0.071092 0.372793 -1.000568
2010-07-07 06:53:42 51°13.878 2°55.632 20.8061 0.071196 0.37284 -0.965744
2010-07-07 06:53:47 51°13.885 2°55.632 20.7108 0.070676 0.371963 -0.721976
2010-07-07 06:53:52 51°13.892 2°55.632 20.5988 0.504249 2.922992 -0.7568
2010-07-07 06:53:57 51°13.899 2°55.633 20.5472 1.649557 10.366619 -0.687152
2010-07-07 06:54:02 51°13.905 2°55.634 20.5135 3.410913 22.910654 -0.687152
2010-07-07 06:54:07 51°13.912 2°55.636 20.4668 3.410913 22.910654 -0.687152
2010-07-07 06:54:12 51°13.917 2°55.638 20.4524 3.729535 25.356753 -0.58268
2010-07-07 06:54:17 51°13.923 2°55.641 20.4169 3.93816 27.039583 -0.513031
2010-07-07 06:54:22 51°13.927 2°55.643 20.4319 4.080792 28.333246 -0.478207
2010-07-07 06:54:27 51°13.931 2°55.646 20.3939 4.099891 28.608883 -0.478207
2010-07-07 06:54:31 51°13.934 2°55.648 20.3741 4.127009 28.930143 -0.478207
2010-07-07 06:54:36 51°13.937 2°55.65 20.3641 4.127009 28.930143 -0.478207
2010-07-07 06:54:41 51°13.939 2°55.652 20.3421 4.126905 29.020882 -0.443383
2010-07-07 06:54:47 51°13.94 2°55.653 20.3427 4.131865 29.114855 -0.443383
2010-07-07 06:54:51 51°13.941 2°55.653 20.3576 4.107072 28.96823 -0.443383
2010-07-07 06:54:57 51°13.941 2°55.653 20.3253 4.112348 29.045854 -0.443383
2010-07-07 06:55:02 51°13.94 2°55.651 20.3213 4.121844 29.141606 -0.408559
2010-07-07 06:55:07 51°13.939 2°55.647 20.304 4.121844 29.141606 -0.408559
2010-07-07 06:55:11 51°13.938 2°55.644 20.2977 4.111083 29.083649 -0.443383
2010-07-07 06:55:16 51°13.937 2°55.638 20.3072 4.112455 29.110258 -0.408559
2010-07-07 06:55:21 51°13.937 2°55.632 20.3166 4.110661 29.112893 -0.443383
2010-07-07 06:55:26 51°13.937 2°55.624 20.301 4.104859 29.075753 -0.408559
2010-07-07 06:55:31 51°13.938 2°55.617 20.3306 4.100005 29.044655 -0.408559
2010-07-07 06:55:35 51°13.939 2°55.61 20.3089 4.100005 29.044655 -0.408559
2010-07-07 06:55:41 51°13.942 2°55.6 20.2971 4.103065 29.080775 -0.408559
2010-07-07 06:55:46 51°13.946 2°55.592 20.3018 4.100006 29.063818 -0.373735
2010-07-07 06:55:50 51°13.949 2°55.586 20.3208 4.095469 29.038549 -0.408559
2010-07-07 06:55:55 51°13.955 2°55.578 20.305 4.096841 29.052255 -0.408559
2010-07-07 06:55:59 51°13.96 2°55.572 20.3143 4.093043 29.022266 -0.443383
2010-07-07 06:56:05 51°13.968 2°55.564 20.2717 4.093043 29.022266 -0.443383
2010-07-07 06:56:10 51°13.976 2°55.557 20.2654 4.093254 29.02489 -0.338911
2010-07-07 06:56:15 51°13.983 2°55.55 20.2675 4.084286 28.957444 -0.373735
2010-07-07 06:56:19 51°13.99 2°55.544 20.271 4.082387 28.942932 -0.408559
2010-07-07 06:56:24 51°13.999 2°55.536 20.2652 4.082281 28.941621 -0.373735
2010-07-07 06:56:29 51°14.008 2°55.527 20.2654 4.080593 28.925911 -0.373735
2010-07-07 06:56:29 51°14.008 2°55.527 20.2654 4.080593 28.925911 -0.373735
2010-07-07 06:56:39 51°14.027 2°55.509 20.2594 4.068671 28.83518 -0.373735
2010-07-07 06:56:43 51°14.035 2°55.501 20.261 4.054745 28.731985 -0.338911
2010-07-07 06:56:46 51°14.041 2°55.496 20.2671 4.054745 28.731985 -0.338911
2010-07-07 06:56:53 51°14.055 2°55.483 20.2551 4.050737 28.712695 -0.373735
2010-07-07 06:56:58 51°14.066 2°55.474 20.2512 4.052636 28.732897 -0.408559
2010-07-07 06:57:03 51°14.076 2°55.464 20.255 4.052636 28.732897 -0.408559
2010-07-07 06:57:03 51°14.076 2°55.464 20.255 4.052636 28.732897 -0.408559
2010-07-07 06:57:15 51°14.103 2°55.442 20.2513 4.049682 28.716231 -0.338911
2010-07-07 06:57:20 51°14.114 2°55.433 20.2577 4.062553 28.819263 -0.373735
2010-07-07 06:57:25 51°14.125 2°55.424 20.264 4.057278 28.779041 -0.373735
2010-07-07 06:57:30 51°14.136 2°55.415 20.2516 4.065191 28.842474 -0.338911
2010-07-07 06:57:35 51°14.148 2°55.405 20.2506 4.064136 28.836525 -0.338911
2010-07-07 06:57:40 51°14.16 2°55.395 20.2545 4.064874 28.843789 -0.304087
2010-07-07 06:57:56 51°14.2 2°55.363 20.2485 4.064663 28.843553 -0.304087
2010-07-07 06:58:27 51°14.283 2°55.291 20.1862 4.068883 28.880232 -0.304087
2010-07-07 06:58:37 51°14.31 2°55.267 20.1642 4.081333 28.993005 -0.304087
2010-07-07 06:58:39 51°14.316 2°55.262 20.1586 4.081333 28.993005 -0.304087
2010-07-07 06:58:47 51°14.338 2°55.242 20.1444 4.083021 29.022687 -0.269263
2010-07-07 06:58:51 51°14.349 2°55.233 20.137 4.09526 29.12487 -0.269263
2010-07-07 06:58:57 51°14.366 2°55.217 20.1255 4.09526 29.12487 -0.269263
2010-07-07 06:59:02 51°14.38 2°55.204 20.112 4.095999 29.140856 -0.234439
2010-07-07 06:59:07 51°14.394 2°55.191 20.0745 4.094733 29.139035 -0.234439
2010-07-07 06:59:12 51°14.409 2°55.177 20.0671 4.093889 29.13766 -0.234439
2010-07-07 06:59:17 51°14.424 2°55.164 20.0704 4.093889 29.148293 -0.199615
2010-07-07 06:59:22 51°14.439 2°55.15 20.0586 4.096316 29.177697 -0.269263
2010-07-07 06:59:27 51°14.455 2°55.136 20.0447 4.096316 29.177697 -0.269263
2010-07-07 06:59:32 51°14.47 2°55.122 20.0301 4.098954 29.204921 -0.234439
2010-07-07 06:59:37 51°14.486 2°55.109 20.0283 4.103913 29.253496 -0.269263
2010-07-07 06:59:42 51°14.503 2°55.095 20.0215 4.108661 29.302382 -0.269263
2010-07-07 06:59:47 51°14.519 2°55.082 20.0159 4.116468 29.368798 -0.338911
2010-07-07 06:59:52 51°14.536 2°55.07 20.0063 4.121533 29.413934 -0.338911
2010-07-07 06:59:57 51°14.553 2°55.059 19.9808 4.121533 29.413934 -0.338911
2010-07-07 07:00:02 51°14.571 2°55.048 19.9659 4.128707 29.474406 -0.338911
2010-07-07 07:00:07 51°14.589 2°55.037 19.9768 4.131767 29.50708 -0.338911
2010-07-07 07:00:12 51°14.607 2°55.031 20.0143 4.133561 29.528717 -0.373735
2010-07-07 07:00:17 51°14.626 2°55.029 20.0092 4.134827 29.545184 -0.373735
2010-07-07 07:00:22 51°14.644 2°55.034 20.1312 4.135672 29.554854 -0.408559
2010-07-07 07:00:27 51°14.662 2°55.043 20.0087 4.135672 29.554854 -0.408559
2010-07-07 07:00:31 51°14.676 2°55.052 19.9738 4.13947 29.5915 -0.408559
2010-07-07 07:00:37 51°14.697 2°55.069 19.9727 4.146434 29.658326 -0.408559
2010-07-07 07:00:42 51°14.712 2°55.087 19.9337 4.153715 29.725268 -0.443383
2010-07-07 07:00:47 51°14.728 2°55.107 19.9252 4.159096 29.771656 -0.478207
2010-07-07 07:00:51 51°14.74 2°55.124 19.9112 4.164582 29.808472 -0.478207
2010-07-07 07:00:57 51°14.759 2°55.147 19.9056 4.164582 29.808472 -0.478207
2010-07-07 07:01:03 51°14.779 2°55.17 19.917 4.168908 29.827081 -0.478207
2010-07-07 07:01:07 51°14.791 2°55.186 19.9022 4.177877 29.889151 -0.547855
2010-07-07 07:01:11 51°14.805 2°55.201 19.9134 4.186635 29.973964 -0.547855
2010-07-07 07:01:17 51°14.824 2°55.224 19.9013 4.196131 30.063286 -0.547855
2010-07-07 07:01:22 51°14.841 2°55.242 19.9055 4.201513 30.119827 -0.513031
2010-07-07 07:01:27 51°14.858 2°55.261 19.89 4.201513 30.119827 -0.513031
2010-07-07 07:01:31 51°14.872 2°55.274 19.9086 4.206156 30.177572 -0.547855
2010-07-07 07:01:37 51°14.892 2°55.296 19.8858 4.208583 30.208079 -0.58268
2010-07-07 07:01:42 51°14.91 2°55.312 19.8978 4.209217 30.219706 -0.58268
2010-07-07 07:01:47 51°14.927 2°55.33 19.8874 4.210483 30.233882 -0.58268
2010-07-07 07:01:51 51°14.941 2°55.342 19.8907 4.211011 30.241643 -0.58268
2010-07-07 07:01:57 51°14.961 2°55.362 19.8863 4.211011 30.241643 -0.58268
2010-07-07 07:02:02 51°14.979 2°55.378 19.8961 4.211116 30.24552 -0.547855
2010-07-07 07:02:07 51°14.997 2°55.395 19.8754 4.212383 30.259706 -0.58268
2010-07-07 07:02:11 51°15.01 2°55.408 19.8772 4.212488 30.262574 -0.547855
2010-07-07 07:02:17 51°15.031 2°55.427 19.8672 4.213227 30.271527 -0.547855
2010-07-07 07:02:22 51°15.049 2°55.444 19.8663 4.21386 30.27913 -0.58268
2010-07-07 07:02:27 51°15.066 2°55.46 19.8557 4.21386 30.27913 -0.58268
2010-07-07 07:02:31 51°15.08 2°55.473 19.8456 4.213016 30.273378 -0.547855
2010-07-07 07:02:37 51°15.101 2°55.493 19.8312 4.213966 30.284025 -0.547855
2010-07-07 07:02:42 51°15.119 2°55.509 19.833 4.212488 30.272188 -0.547855
2010-07-07 07:02:47 51°15.136 2°55.525 19.8251 4.214493 30.291292 -0.547855
2010-07-07 07:02:52 51°15.154 2°55.542 19.8181 4.214071 30.292469 -0.58268
2010-07-07 07:02:57 51°15.171 2°55.558 19.819 4.214071 30.292469 -0.58268
2010-07-07 07:03:02 51°15.189 2°55.574 19.816 4.214282 30.297708 -0.547855
2010-07-07 07:03:07 51°15.206 2°55.59 19.8128 4.212067 30.286024 -0.58268
2010-07-07 07:03:12 51°15.224 2°55.607 19.8143 4.213755 30.305138 -0.547855
2010-07-07 07:03:17 51°15.241 2°55.623 19.8039 4.214072 30.31478 -0.547855
2010-07-07 07:03:22 51°15.259 2°55.639 19.8055 4.213544 30.316131 -0.58268
2010-07-07 07:03:27 51°15.276 2°55.656 19.8017 4.213544 30.316131 -0.58268
2010-07-07 07:03:32 51°15.293 2°55.672 19.8012 4.213017 30.316974 -0.58268
2010-07-07 07:03:37 51°15.309 2°55.688 19.7935 4.212595 30.31765 -0.58268
2010-07-07 07:03:42 51°15.325 2°55.702 19.7898 4.212067 30.315955 -0.58268
2010-07-07 07:03:47 51°15.339 2°55.717 19.7943 4.211223 30.312734 -0.58268
2010-07-07 07:03:52 51°15.353 2°55.731 19.7935 4.211012 30.31358 -0.58268
2010-07-07 07:03:57 51°15.365 2°55.744 19.7959 4.211012 30.31358 -0.58268
2010-07-07 07:04:02 51°15.376 2°55.758 19.7793 4.210379 30.312053 -0.58268
2010-07-07 07:04:07 51°15.386 2°55.77 19.7818 4.209851 30.309342 -0.58268
2010-07-07 07:04:11 51°15.394 2°55.781 19.775 4.20964 30.311204 -0.617504
2010-07-07 07:04:17 51°15.404 2°55.796 19.7717 4.209324 30.310186 -0.58268
2010-07-07 07:04:22 51°15.412 2°55.808 19.7656 4.209007 30.309677 -0.617504
2010-07-07 07:04:27 51°15.42 2°55.819 19.7554 4.209007 30.309677 -0.617504
2010-07-07 07:04:32 51°15.427 2°55.83 19.7569 4.208585 30.307304 -0.58268
2010-07-07 07:04:37 51°15.435 2°55.84 19.7545 4.208796 30.309507 -0.58268
2010-07-07 07:04:42 51°15.442 2°55.849 19.7616 4.20848 30.308997 -0.58268
2010-07-07 07:04:47 51°15.449 2°55.857 19.7574 4.208902 30.315437 -0.58268
2010-07-07 07:04:51 51°15.455 2°55.863 19.7563 4.208902 30.320521 -0.617504
2010-07-07 07:04:57 51°15.463 2°55.871 19.7552 4.208902 30.320521 -0.617504
2010-07-07 07:05:02 51°15.47 2°55.878 19.7542 4.20848 30.319673 -0.58268
2010-07-07 07:05:07 51°15.477 2°55.884 19.7584 4.20848 30.325269 -0.58268
2010-07-07 07:05:12 51°15.484 2°55.889 19.7605 4.208691 30.331545 -0.617504
2010-07-07 07:05:17 51°15.491 2°55.894 19.7554 4.208269 30.330189 -0.617504
2010-07-07 07:05:22 51°15.497 2°55.899 19.7533 4.208058 30.32951 -0.617504
2010-07-07 07:05:27 51°15.504 2°55.903 19.7511 4.208058 30.32951 -0.617504
2010-07-07 07:05:32 51°15.51 2°55.907 19.7517 4.207636 30.327645 -0.617504
2010-07-07 07:05:37 51°15.516 2°55.91 19.7491 4.207214 30.32578 -0.617504
2010-07-07 07:05:42 51°15.522 2°55.913 19.7478 4.207214 30.32578 -0.617504
2010-07-07 07:05:47 51°15.528 2°55.915 19.7495 4.206581 30.3212 -0.617504
2010-07-07 07:05:52 51°15.534 2°55.917 19.7466 4.206581 30.321709 -0.58268
2010-07-07 07:05:57 51°15.54 2°55.919 19.7439 4.206581 30.321709 -0.58268
2010-07-07 07:06:02 51°15.545 2°55.921 19.7421 4.206581 30.321709 -0.58268
2010-07-07 07:06:07 51°15.551 2°55.924 19.7525 4.206581 30.322218 -0.617504
2010-07-07 07:06:12 51°15.557 2°55.926 19.742 4.207003 30.327647 -0.617504
2010-07-07 07:06:17 51°15.563 2°55.929 19.74 4.206687 30.327139 -0.617504
2010-07-07 07:06:22 51°15.569 2°55.931 19.7392 4.207109 30.331551 -0.617504
2010-07-07 07:06:27 51°15.574 2°55.933 19.7397 4.207109 30.331551 -0.617504
2010-07-07 07:06:32 51°15.58 2°55.934 19.738 4.207742 30.33715 -0.617504
2010-07-07 07:06:37 51°15.586 2°55.936 19.7377 4.208058 30.340713 -0.617504
2010-07-07 07:06:42 51°15.592 2°55.937 19.738 4.208164 30.342581 -0.617504
2010-07-07 07:06:47 51°15.597 2°55.938 19.7363 4.208903 30.348519 -0.617504
2010-07-07 07:06:52 51°15.603 2°55.938 19.7318 4.20943 30.353271 -0.58268
2010-07-07 07:06:57 51°15.609 2°55.939 19.7314 4.20943 30.353271 -0.58268
2010-07-07 07:07:02 51°15.614 2°55.94 19.7276 4.209958 30.360063 -0.617504
2010-07-07 07:07:07 51°15.62 2°55.941 19.7284 4.209958 30.360063 -0.652328
2010-07-07 07:07:11 51°15.624 2°55.942 19.726 4.210697 30.367532 -0.652328
2010-07-07 07:07:17 51°15.63 2°55.944 19.7257 4.211541 30.374831 -0.652328
2010-07-07 07:07:22 51°15.635 2°55.947 19.7239 4.212596 30.384339 -0.617504
2010-07-07 07:07:27 51°15.64 2°55.949 19.7263 4.212596 30.384339 -0.617504
2010-07-07 07:07:32 51°15.645 2°55.952 19.7147 4.213123 30.389093 -0.652328
2010-07-07 07:07:37 51°15.65 2°55.955 19.7168 4.214179 30.400133 -0.652328
2010-07-07 07:07:42 51°15.655 2°55.959 19.7177 4.215445 30.411341 -0.617504
2010-07-07 07:07:47 51°15.66 2°55.964 19.718 4.191176 30.217197 -0.652328
2010-07-07 07:07:51 51°15.663 2°55.967 19.7126 4.217239 30.428329 -0.652328
2010-07-07 07:07:57 51°15.669 2°55.973 19.7108 4.217239 30.428329 -0.652328
2010-07-07 07:08:02 51°15.673 2°55.978 19.7098 4.217978 30.435807 -0.687152
2010-07-07 07:08:07 51°15.677 2°55.984 19.7065 4.218716 30.442262 -0.687152
2010-07-07 07:08:11 51°15.68 2°55.988 19.7086 4.219244 30.448555 -0.687152
2010-07-07 07:08:17 51°15.684 2°55.996 19.7075 4.219983 30.456035 -0.687152
2010-07-07 07:08:22 51°15.688 2°56.002 19.7019 4.22051 30.461305 -0.687152
2010-07-07 07:08:27 51°15.691 2°56.008 19.7027 4.22051 30.461305 -0.687152
2010-07-07 07:08:32 51°15.694 2°56.015 19.7009 4.220932 30.465726 -0.652328
2010-07-07 07:08:37 51°15.697 2°56.022 19.6985 4.222198 30.477456 -0.687152
2010-07-07 07:08:42 51°15.699 2°56.028 19.6968 4.222199 30.478481 -0.721976
2010-07-07 07:08:47 51°15.702 2°56.036 19.7005 4.222515 30.483591 -0.721976
2010-07-07 07:08:51 51°15.705 2°56.041 19.7005 4.222621 30.484953 -0.687152
2010-07-07 07:08:57 51°15.708 2°56.049 19.7024 4.222621 30.484953 -0.687152
2010-07-07 07:09:02 51°15.711 2°56.056 19.701 4.222726 30.48734 -0.721976
2010-07-07 07:09:07 51°15.713 2°56.063 19.6979 4.223465 30.494313 -0.687152
2010-07-07 07:09:12 51°15.716 2°56.07 19.6968 4.223676 30.497038 -0.687152
2010-07-07 07:09:17 51°15.719 2°56.076 19.6945 4.223359 30.49654 -0.687152
2010-07-07 07:09:22 51°15.722 2°56.083 19.694 4.223254 30.496715 -0.721976
2010-07-07 07:09:27 51°15.726 2°56.089 19.6967 4.223254 30.496715 -0.721976
2010-07-07 07:09:32 51°15.729 2°56.095 19.6967 4.222937 30.494166 -0.687152
2010-07-07 07:09:37 51°15.732 2°56.102 19.6958 4.222937 30.493653 -0.721976
2010-07-07 07:09:42 51°15.735 2°56.108 19.6974 4.222937 30.493653 -0.687152
2010-07-07 07:09:47 51°15.738 2°56.114 19.6978 4.222832 30.493829 -0.721976
2010-07-07 07:09:52 51°15.741 2°56.121 19.6956 4.222621 30.493155 -0.721976
2010-07-07 07:09:57 51°15.744 2°56.127 19.695 4.222621 30.493155 -0.721976
2010-07-07 07:10:02 51°15.747 2°56.134 19.6985 4.222515 30.49333 -0.721976
2010-07-07 07:10:07 51°15.75 2°56.14 19.698 4.222515 30.494356 -0.721976
2010-07-07 07:10:12 51°15.753 2°56.147 19.6993 4.222304 30.491631 -0.721976
2010-07-07 07:10:17 51°15.756 2°56.153 19.7008 4.222093 30.490956 -0.687152
2010-07-07 07:10:22 51°15.759 2°56.16 19.6947 4.221777 30.487894 -0.721976
2010-07-07 07:10:27 51°15.762 2°56.166 19.6977 4.221777 30.487894 -0.721976
2010-07-07 07:10:32 51°15.764 2°56.172 19.6972 4.221777 30.487381 -0.721976
2010-07-07 07:10:37 51°15.767 2°56.178 19.695 4.221777 30.487894 -0.721976
2010-07-07 07:10:42 51°15.77 2°56.184 19.6964 4.221566 30.485169 -0.7568
2010-07-07 07:10:47 51°15.773 2°56.19 19.6956 4.220932 30.48007 -0.7568
2010-07-07 07:10:52 51°15.776 2°56.195 19.6985 4.221249 30.481594 -0.721976
2010-07-07 07:10:57 51°15.779 2°56.201 19.6983 4.221249 30.481594 -0.721976
2010-07-07 07:11:02 51°15.782 2°56.206 19.6993 4.221566 30.484144 -0.721976
2010-07-07 07:11:07 51°15.785 2°56.212 19.698 4.221038 30.48092 -0.721976
2010-07-07 07:11:12 51°15.788 2°56.217 19.6973 4.221144 30.481257 -0.687152
2010-07-07 07:11:17 51°15.791 2°56.223 19.6982 4.22051 30.477183 -0.721976
2010-07-07 07:11:22 51°15.794 2°56.228 19.7006 4.220299 30.475996 -0.687152
2010-07-07 07:11:27 51°15.797 2°56.234 19.6983 4.220299 30.475996 -0.687152
2010-07-07 07:11:32 51°15.799 2°56.239 19.6993 4.220405 30.476846 -0.721976
2010-07-07 07:11:37 51°15.802 2°56.245 19.6997 4.220299 30.475484 -0.721976
2010-07-07 07:11:42 51°15.805 2°56.251 19.6997 4.219877 30.471572 -0.687152
2010-07-07 07:11:47 51°15.807 2°56.257 19.6999 4.220088 30.472759 -0.721976
2010-07-07 07:11:52 51°15.81 2°56.263 19.6988 4.219666 30.46936 -0.687152
2010-07-07 07:11:57 51°15.812 2°56.269 19.7005 4.219666 30.46936 -0.687152
2010-07-07 07:12:02 51°15.815 2°56.275 19.6992 4.219455 30.467661 -0.721976
2010-07-07 07:12:07 51°15.817 2°56.28 19.6986 4.219561 30.468511 -0.687152
2010-07-07 07:12:12 51°15.82 2°56.286 19.6968 4.219139 30.465624 -0.721976
2010-07-07 07:12:17 51°15.822 2°56.292 19.6983 4.21935 30.465787 -0.687152
2010-07-07 07:12:22 51°15.825 2°56.297 19.6977 4.219244 30.465449 -0.721976
2010-07-07 07:12:27 51°15.828 2°56.303 19.6977 4.219244 30.465449 -0.721976
2010-07-07 07:12:32 51°15.83 2°56.308 19.6992 4.219139 30.464599 -0.721976
2010-07-07 07:12:37 51°15.833 2°56.314 19.6991 4.219139 30.465112 -0.721976
2010-07-07 07:12:42 51°15.836 2°56.319 19.6983 4.219033 30.46375 -0.721976
2010-07-07 07:12:47 51°15.839 2°56.324 19.6982 4.219139 30.465112 -0.721976
2010-07-07 07:12:51 51°15.841 2°56.329 19.6968 4.219244 30.466474 -0.721976
2010-07-07 07:12:57 51°15.844 2°56.335 19.6963 4.219244 30.466474 -0.721976
2010-07-07 07:13:02 51°15.847 2°56.341 19.6979 4.219244 30.466474 -0.7568
2010-07-07 07:13:07 51°15.85 2°56.346 19.6988 4.219139 30.466136 -0.687152
2010-07-07 07:13:12 51°15.853 2°56.352 19.6981 4.218822 30.462562 -0.721976
2010-07-07 07:13:17 51°15.856 2°56.358 19.6987 4.219139 30.465112 -0.687152
2010-07-07 07:13:23 51°15.859 2°56.364 19.6955 4.218822 30.463075 -0.7568
2010-07-07 07:13:27 51°15.861 2°56.369 19.6964 4.218822 30.463075 -0.7568
2010-07-07 07:13:31 51°15.864 2°56.373 19.6955 4.218506 30.460013 -0.7568
2010-07-07 07:13:37 51°15.867 2°56.38 19.6944 4.218717 30.462737 -0.721976
2010-07-07 07:13:42 51°15.87 2°56.385 19.695 4.218928 30.464437 -0.7568
2010-07-07 07:13:47 51°15.873 2°56.391 19.6929 4.218611 30.461887 -0.7568
2010-07-07 07:13:52 51°15.876 2°56.397 19.6943 4.21935 30.467323 -0.721976
2010-07-07 07:13:57 51°15.878 2°56.403 19.6953 4.21935 30.467323 -0.721976
2010-07-07 07:14:02 51°15.881 2°56.409 19.6974 4.218928 30.463924 -0.721976
2010-07-07 07:14:07 51°15.884 2°56.415 19.697 4.218928 30.464949 -0.721976
2010-07-07 07:14:12 51°15.887 2°56.421 19.6959 4.218611 30.4624 -0.687152
2010-07-07 07:14:17 51°15.889 2°56.427 19.6947 4.218611 30.463424 -0.7568
2010-07-07 07:14:22 51°15.892 2°56.433 19.6957 4.218717 30.464786 -0.721976
2010-07-07 07:14:27 51°15.894 2°56.439 19.6956 4.218717 30.464786 -0.721976
2010-07-07 07:14:31 51°15.896 2°56.444 19.6953 4.218611 30.463937 -0.721976
2010-07-07 07:14:37 51°15.899 2°56.452 19.692 4.218717 30.463762 -0.721976
2010-07-07 07:14:42 51°15.902 2°56.459 19.6931 4.218611 30.463424 -0.721976
2010-07-07 07:14:47 51°15.904 2°56.465 19.6927 4.218822 30.464612 -0.721976
2010-07-07 07:14:52 51°15.907 2°56.471 19.692 4.218928 30.465461 -0.721976
2010-07-07 07:14:57 51°15.909 2°56.478 19.6935 4.218928 30.465461 -0.721976
2010-07-07 07:15:02 51°15.911 2°56.484 19.6904 4.218928 30.465461 -0.721976
2010-07-07 07:15:07 51°15.914 2°56.491 19.6921 4.218928 30.465461 -0.721976
2010-07-07 07:15:12 51°15.916 2°56.498 19.6927 4.218928 30.465461 -0.721976
2010-07-07 07:15:17 51°15.918 2°56.504 19.6919 4.218928 30.466486 -0.7568
2010-07-07 07:15:22 51°15.92 2°56.511 19.6919 4.218822 30.466149 -0.687152
2010-07-07 07:15:27 51°15.922 2°56.518 19.6917 4.218822 30.466149 -0.687152
2010-07-07 07:15:32 51°15.924 2°56.525 19.6899 4.218928 30.467511 -0.721976
2010-07-07 07:15:37 51°15.926 2°56.532 19.6942 4.218717 30.465811 -0.7568
2010-07-07 07:15:42 51°15.928 2°56.539 19.6899 4.218928 30.467511 -0.721976
2010-07-07 07:15:47 51°15.93 2°56.546 19.6892 4.219033 30.468873 -0.7568
2010-07-07 07:15:51 51°15.931 2°56.551 19.6889 4.218822 30.467173 -0.721976
2010-07-07 07:15:57 51°15.933 2°56.559 19.6924 4.218822 30.467173 -0.721976
2010-07-07 07:16:02 51°15.935 2°56.566 19.6886 4.219139 30.469723 -0.721976
2010-07-07 07:16:07 51°15.937 2°56.573 19.6885 4.219033 30.469385 -0.687152
2010-07-07 07:16:12 51°15.939 2°56.58 19.6883 4.219244 30.471085 -0.721976
2010-07-07 07:16:17 51°15.94 2°56.586 19.6881 4.219139 30.470235 -0.687152
2010-07-07 07:16:23 51°15.942 2°56.595 19.6889 4.219244 30.471598 -0.721976
2010-07-07 07:16:27 51°15.944 2°56.6 19.6862 4.219244 30.471598 -0.721976
2010-07-07 07:16:31 51°15.945 2°56.606 19.6873 4.219244 30.471598 -0.687152
2010-07-07 07:16:37 51°15.948 2°56.614 19.6876 4.21935 30.472448 -0.721976
2010-07-07 07:16:42 51°15.949 2°56.621 19.6877 4.219561 30.47466 -0.687152
2010-07-07 07:16:47 51°15.951 2°56.628 19.6892 4.219244 30.47211 -0.721976
2010-07-07 07:16:52 51°15.953 2°56.635 19.6895 4.219455 30.474323 -0.721976
2010-07-07 07:16:57 51°15.955 2°56.641 19.6861 4.219455 30.474323 -0.721976
2010-07-07 07:17:02 51°15.957 2°56.648 19.6902 4.219666 30.476535 -0.721976
2010-07-07 07:17:07 51°15.959 2°56.655 19.6872 4.21935 30.474498 -0.721976
2010-07-07 07:17:12 51°15.96 2°56.661 19.6878 4.219772 30.477898 -0.721976
2010-07-07 07:17:17 51°15.962 2°56.668 19.6906 4.219561 30.47671 -0.721976
2010-07-07 07:17:22 51°15.964 2°56.674 19.6898 4.219139 30.472798 -0.721976
2010-07-07 07:17:27 51°15.966 2°56.681 19.6871 4.219139 30.472798 -0.721976
2010-07-07 07:17:32 51°15.968 2°56.687 19.6867 4.219561 30.476198 -0.721976
2010-07-07 07:17:37 51°15.969 2°56.694 19.687 4.219772 30.477385 -0.687152
2010-07-07 07:17:42 51°15.971 2°56.7 19.6896 4.219561 30.47671 -0.721976
2010-07-07 07:17:47 51°15.973 2°56.707 19.6878 4.21935 30.47501 -0.721976
2010-07-07 07:17:51 51°15.974 2°56.712 19.6907 4.21935 30.474498 -0.7568
2010-07-07 07:17:57 51°15.977 2°56.72 19.6919 4.21935 30.474498 -0.7568
2010-07-07 07:18:02 51°15.978 2°56.726 19.6918 4.219561 30.475685 -0.721976
2010-07-07 07:18:07 51°15.98 2°56.733 19.6903 4.21935 30.473985 -0.7568
2010-07-07 07:18:12 51°15.982 2°56.739 19.6903 4.21935 30.473985 -0.721976
2010-07-07 07:18:17 51°15.984 2°56.745 19.6903 4.219033 30.471948 -0.721976
2010-07-07 07:18:23 51°15.986 2°56.753 19.6908 4.219139 30.472285 -0.721976
2010-07-07 07:18:27 51°15.987 2°56.758 19.6917 4.219139 30.472285 -0.721976
2010-07-07 07:18:31 51°15.989 2°56.763 19.692 4.218611 30.468036 -0.7568
2010-07-07 07:18:37 51°15.991 2°56.77 19.696 4.218822 30.469736 -0.721976
2010-07-07 07:18:42 51°15.993 2°56.776 19.6931 4.218717 30.467861 -0.721976
2010-07-07 07:18:47 51°15.995 2°56.782 19.694 4.218928 30.469561 -0.7568
2010-07-07 07:18:52 51°15.997 2°56.789 19.6941 4.218611 30.466498 -0.7568
2010-07-07 07:18:57 51°15.998 2°56.795 19.6934 4.218611 30.466498 -0.7568
2010-07-07 07:19:02 51°16 2°56.801 19.6942 4.217978 30.462424 -0.7568
2010-07-07 07:19:07 51°16.002 2°56.807 19.6947 4.218611 30.466498 -0.721976
2010-07-07 07:19:12 51°16.004 2°56.813 19.6946 4.218295 30.463949 -0.721976
2010-07-07 07:19:17 51°16.006 2°56.819 19.6948 4.2184 30.463262 -0.721976
2010-07-07 07:19:22 51°16.008 2°56.826 19.6963 4.2184 30.462749 -0.721976
2010-07-07 07:19:27 51°16.01 2°56.832 19.6967 4.2184 30.462749 -0.721976
2010-07-07 07:19:32 51°16.012 2°56.838 19.6971 4.218189 30.46105 -0.721976
2010-07-07 07:19:37 51°16.013 2°56.844 19.6977 4.218084 30.4602 -0.721976
2010-07-07 07:19:42 51°16.015 2°56.85 19.6988 4.218084 30.4602 -0.7568
2010-07-07 07:19:47 51°16.017 2°56.856 19.6986 4.217767 30.457651 -0.7568
2010-07-07 07:19:51 51°16.019 2°56.861 19.7 4.217661 30.456289 -0.7568
2010-07-07 07:19:57 51°16.021 2°56.868 19.6992 4.217661 30.456289 -0.7568
2010-07-07 07:20:02 51°16.023 2°56.874 19.7001 4.217767 30.457138 -0.721976
2010-07-07 07:20:07 51°16.024 2°56.88 19.7002 4.217661 30.456289 -0.721976
2010-07-07 07:20:12 51°16.026 2°56.886 19.7009 4.217556 30.454414 -0.7568
2010-07-07 07:20:17 51°16.028 2°56.892 19.6994 4.217345 30.451691 -0.721976
2010-07-07 07:20:23 51°16.03 2°56.899 19.7031 4.217556 30.452878 -0.721976
2010-07-07 07:20:27 51°16.032 2°56.903 19.7014 4.217556 30.452878 -0.721976
2010-07-07 07:20:31 51°16.033 2°56.908 19.7003 4.217134 30.449479 -0.721976
2010-07-07 07:20:37 51°16.035 2°56.915 19.7005 4.21745 30.452028 -0.721976
2010-07-07 07:20:42 51°16.037 2°56.921 19.7024 4.216923 30.446756 -0.7568
2010-07-07 07:20:47 51°16.039 2°56.927 19.7042 4.217239 30.449305 -0.721976
2010-07-07 07:20:52 51°16.041 2°56.933 19.7026 4.217028 30.447094 -0.721976
2010-07-07 07:20:57 51°16.042 2°56.938 19.7034 4.217028 30.447094 -0.721976
2010-07-07 07:21:02 51°16.044 2°56.944 19.7049 4.217134 30.447943 -0.721976
2010-07-07 07:21:07 51°16.046 2°56.95 19.7054 4.217028 30.446582 -0.721976
2010-07-07 07:21:12 51°16.047 2°56.956 19.7037 4.216923 30.44522 -0.687152
2010-07-07 07:21:17 51°16.049 2°56.962 19.7041 4.216817 30.444883 -0.721976
2010-07-07 07:21:22 51°16.051 2°56.967 19.7047 4.216923 30.445732 -0.721976
2010-07-07 07:21:27 51°16.053 2°56.973 19.7045 4.216923 30.445732 -0.721976
2010-07-07 07:21:32 51°16.054 2°56.979 19.7039 4.216923 30.44522 -0.721976
2010-07-07 07:21:37 51°16.056 2°56.985 19.7035 4.216712 30.443009 -0.687152
2010-07-07 07:21:42 51°16.057 2°56.991 19.7051 4.216395 30.439949 -0.721976
2010-07-07 07:21:47 51°16.059 2°56.997 19.7054 4.216712 30.441986 -0.721976
2010-07-07 07:21:51 51°16.06 2°57.001 19.7064 4.216395 30.439437 -0.721976
2010-07-07 07:21:57 51°16.062 2°57.008 19.7087 4.216395 30.439437 -0.721976
2010-07-07 07:22:02 51°16.064 2°57.014 19.7056 4.216712 30.441986 -0.721976
2010-07-07 07:22:07 51°16.065 2°57.02 19.7053 4.216817 30.442835 -0.721976
2010-07-07 07:22:12 51°16.067 2°57.025 19.7054 4.216817 30.442323 -0.687152
2010-07-07 07:22:17 51°16.068 2°57.031 19.7054 4.216817 30.442323 -0.721976
2010-07-07 07:22:23 51°16.07 2°57.038 19.7025 4.216817 30.442323 -0.687152
2010-07-07 07:22:27 51°16.071 2°57.043 19.7028 4.216817 30.442323 -0.687152
2010-07-07 07:22:31 51°16.072 2°57.048 19.7043 4.217028 30.442999 -0.721976
2010-07-07 07:22:37 51°16.074 2°57.055 19.7029 4.216923 30.442661 -0.687152
2010-07-07 07:22:42 51°16.076 2°57.061 19.7035 4.217028 30.442487 -0.721976
2010-07-07 07:22:47 51°16.077 2°57.067 19.7048 4.216923 30.442149 -0.721976
2010-07-07 07:22:52 51°16.079 2°57.072 19.7035 4.217134 30.443848 -0.721976
2010-07-07 07:22:57 51°16.08 2°57.078 19.7044 4.217134 30.443848 -0.721976
2010-07-07 07:23:02 51°16.082 2°57.084 19.7048 4.217134 30.44436 -0.721976
2010-07-07 07:23:07 51°16.083 2°57.09 19.7043 4.217028 30.443511 -0.721976
2010-07-07 07:23:12 51°16.085 2°57.096 19.705 4.217134 30.444872 -0.721976
2010-07-07 07:23:17 51°16.086 2°57.103 19.7026 4.217134 30.445384 -0.687152
2010-07-07 07:23:22 51°16.088 2°57.109 19.7041 4.217134 30.444872 -0.721976
2010-07-07 07:23:27 51°16.089 2°57.115 19.7041 4.217134 30.444872 -0.721976
2010-07-07 07:23:32 51°16.091 2°57.121 19.7037 4.216923 30.443173 -0.721976
2010-07-07 07:23:37 51°16.092 2°57.127 19.704 4.217134 30.44436 -0.721976
2010-07-07 07:23:42 51°16.094 2°57.133 19.7025 4.217239 30.445722 -0.721976
2010-07-07 07:23:47 51°16.095 2°57.139 19.7041 4.217239 30.445722 -0.721976
2010-07-07 07:23:51 51°16.096 2°57.144 19.7019 4.217028 30.444534 -0.721976
2010-07-07 07:23:57 51°16.098 2°57.152 19.7055 4.217028 30.444534 -0.721976
2010-07-07 07:24:02 51°16.1 2°57.158 19.7032 4.217239 30.446233 -0.687152
2010-07-07 07:24:07 51°16.101 2°57.164 19.7049 4.217239 30.446745 -0.721976
2010-07-07 07:24:12 51°16.103 2°57.171 19.7043 4.217134 30.445384 -0.687152
2010-07-07 07:24:17 51°16.104 2°57.177 19.7032 4.217345 30.446571 -0.721976
2010-07-07 07:24:22 51°16.106 2°57.183 19.7011 4.216817 30.443347 -0.721976
2010-07-07 07:24:27 51°16.108 2°57.19 19.7041 4.216817 30.443347 -0.721976
2010-07-07 07:24:31 51°16.109 2°57.195 19.7039 4.217239 30.446233 -0.687152
2010-07-07 07:24:37 51°16.111 2°57.203 19.7051 4.21745 30.447933 -0.721976
2010-07-07 07:24:42 51°16.113 2°57.209 19.7058 4.217134 30.445896 -0.721976
2010-07-07 07:24:47 51°16.114 2°57.216 19.7064 4.217345 30.447083 -0.721976
2010-07-07 07:24:52 51°16.116 2°57.222 19.7031 4.217134 30.445384 -0.721976
2010-07-07 07:24:57 51°16.118 2°57.229 19.7049 4.217134 30.445384 -0.721976
2010-07-07 07:25:02 51°16.12 2°57.235 19.7034 4.217239 30.446745 -0.7568
2010-07-07 07:25:07 51°16.122 2°57.241 19.7033 4.217134 30.445384 -0.687152
2010-07-07 07:25:12 51°16.123 2°57.247 19.7038 4.217345 30.447083 -0.721976
2010-07-07 07:25:17 51°16.125 2°57.253 19.7066 4.217239 30.446233 -0.721976
2010-07-07 07:25:22 51°16.127 2°57.259 19.7051 4.216712 30.441474 -0.7568
2010-07-07 07:25:27 51°16.129 2°57.265 19.7045 4.216712 30.441474 -0.7568
2010-07-07 07:25:32 51°16.131 2°57.271 19.7043 4.217239 30.445722 -0.721976
2010-07-07 07:25:37 51°16.134 2°57.277 19.7054 4.217134 30.444872 -0.7568
2010-07-07 07:25:42 51°16.136 2°57.283 19.704 4.217134 30.444872 -0.721976
2010-07-07 07:25:47 51°16.138 2°57.289 19.7082 4.217028 30.444023 -0.687152
2010-07-07 07:25:51 51°16.14 2°57.294 19.7052 4.216923 30.443173 -0.721976
2010-07-07 07:25:57 51°16.142 2°57.301 19.705 4.216923 30.443173 -0.721976
2010-07-07 07:26:02 51°16.144 2°57.308 19.7057 4.216923 30.443173 -0.721976
2010-07-07 07:26:07 51°16.146 2°57.314 19.7063 4.216606 30.440113 -0.721976
2010-07-07 07:26:12 51°16.148 2°57.32 19.706 4.216712 30.440962 -0.7568
2010-07-07 07:26:17 51°16.15 2°57.326 19.7056 4.216606 30.439601 -0.721976
2010-07-07 07:26:22 51°16.151 2°57.333 19.7084 4.216712 30.440962 -0.687152
2010-07-07 07:26:27 51°16.153 2°57.339 19.7077 4.216712 30.440962 -0.687152
2010-07-07 07:26:31 51°16.154 2°57.345 19.7079 4.216817 30.4413 -0.687152
2010-07-07 07:26:37 51°16.156 2°57.353 19.7056 4.216184 30.436203 -0.721976
2010-07-07 07:26:42 51°16.157 2°57.359 19.7057 4.216184 30.436203 -0.721976
2010-07-07 07:26:47 51°16.158 2°57.366 19.7059 4.21629 30.437564 -0.687152
2010-07-07 07:26:52 51°16.159 2°57.372 19.7051 4.216184 30.436203 -0.687152
2010-07-07 07:26:57 51°16.16 2°57.379 19.7076 4.216184 30.436203 -0.687152
2010-07-07 07:27:02 51°16.161 2°57.386 19.7075 4.216078 30.435353 -0.687152
2010-07-07 07:27:07 51°16.162 2°57.392 19.7061 4.216078 30.434842 -0.721976
2010-07-07 07:27:12 51°16.163 2°57.398 19.7069 4.215973 30.433992 -0.687152
2010-07-07 07:27:17 51°16.164 2°57.405 19.711 4.215867 30.433143 -0.687152
2010-07-07 07:27:22 51°16.165 2°57.411 19.7097 4.215867 30.433654 -0.687152
2010-07-07 07:27:27 51°16.166 2°57.417 19.7068 4.215867 30.433654 -0.687152
2010-07-07 07:27:32 51°16.167 2°57.424 19.7082 4.215762 30.432805 -0.687152
2010-07-07 07:27:37 51°16.168 2°57.43 19.7062 4.215762 30.432805 -0.721976
2010-07-07 07:27:42 51°16.169 2°57.436 19.7076 4.215762 30.432293 -0.687152
2010-07-07 07:27:47 51°16.17 2°57.443 19.7075 4.215762 30.432293 -0.687152
2010-07-07 07:27:52 51°16.171 2°57.449 19.7087 4.215656 30.430932 -0.721976
2010-07-07 07:27:57 51°16.172 2°57.455 19.7091 4.215656 30.430932 -0.721976
2010-07-07 07:28:02 51°16.173 2°57.461 19.7116 4.215551 30.429571 -0.687152
2010-07-07 07:28:07 51°16.174 2°57.467 19.7116 4.215762 30.43127 -0.687152
2010-07-07 07:28:12 51°16.175 2°57.474 19.7104 4.215551 30.430083 -0.687152
2010-07-07 07:28:17 51°16.175 2°57.48 19.7107 4.215234 30.427023 -0.721976
2010-07-07 07:28:22 51°16.176 2°57.487 19.7099 4.21534 30.428384 -0.721976
2010-07-07 07:28:27 51°16.177 2°57.493 19.7125 4.21534 30.428384 -0.721976
2010-07-07 07:28:32 51°16.178 2°57.5 19.7133 4.215129 30.426685 -0.687152
2010-07-07 07:28:37 51°16.178 2°57.506 19.7111 4.215023 30.425324 -0.687152
2010-07-07 07:28:42 51°16.179 2°57.513 19.71 4.215023 30.424301 -0.721976
2010-07-07 07:28:47 51°16.18 2°57.52 19.7112 4.214812 30.422603 -0.721976
2010-07-07 07:28:52 51°16.18 2°57.527 19.7133 4.214918 30.423452 -0.721976
2010-07-07 07:28:57 51°16.181 2°57.534 19.7123 4.214918 30.423452 -0.721976
2010-07-07 07:29:02 51°16.181 2°57.541 19.7103 4.214812 30.422091 -0.687152
2010-07-07 07:29:07 51°16.182 2°57.549 19.7104 4.214496 30.419543 -0.721976
2010-07-07 07:29:12 51°16.182 2°57.557 19.7126 4.214812 30.420557 -0.687152
2010-07-07 07:29:17 51°16.182 2°57.564 19.7128 4.214812 30.421069 -0.721976
2010-07-07 07:29:22 51°16.182 2°57.573 19.7126 4.214601 30.420393 -0.721976
2010-07-07 07:29:27 51°16.182 2°57.581 19.7145 4.214601 30.420393 -0.721976
2010-07-07 07:29:32 51°16.181 2°57.589 19.7149 4.214601 30.420393 -0.721976
2010-07-07 07:29:37 51°16.181 2°57.598 19.7157 4.214601 30.419881 -0.721976
2010-07-07 07:29:42 51°16.18 2°57.606 19.7149 4.214285 30.416822 -0.687152
2010-07-07 07:29:47 51°16.179 2°57.615 19.7168 4.21439 30.418183 -0.7568
2010-07-07 07:29:52 51°16.178 2°57.623 19.7209 4.214285 30.417333 -0.721976
2010-07-07 07:29:57 51°16.177 2°57.632 19.7178 4.214285 30.417333 -0.721976
2010-07-07 07:30:02 51°16.176 2°57.641 19.7214 4.214496 30.418521 -0.721976
2010-07-07 07:30:07 51°16.174 2°57.65 19.7213 4.214179 30.415973 -0.721976
2010-07-07 07:30:11 51°16.172 2°57.657 19.7211 4.214074 30.414101 -0.721976
2010-07-07 07:30:17 51°16.17 2°57.667 19.7201 4.213968 30.412741 -0.721976
2010-07-07 07:30:22 51°16.168 2°57.675 19.7219 4.214073 30.41359 -0.687152
2010-07-07 07:30:27 51°16.165 2°57.684 19.7236 4.214073 30.41359 -0.687152
2010-07-07 07:30:32 51°16.162 2°57.692 19.7258 4.213862 30.410358 -0.721976
2010-07-07 07:30:37 51°16.16 2°57.7 19.728 4.213968 30.410185 -0.687152
2010-07-07 07:30:42 51°16.157 2°57.708 19.7244 4.213862 30.408314 -0.721976
2010-07-07 07:30:47 51°16.153 2°57.715 19.7258 4.213757 30.407465 -0.687152
2010-07-07 07:30:51 51°16.151 2°57.72 19.7282 4.213651 30.406615 -0.687152
2010-07-07 07:30:57 51°16.148 2°57.728 19.7307 4.213651 30.406615 -0.687152
2010-07-07 07:31:02 51°16.145 2°57.734 19.7287 4.213335 30.403046 -0.687152
2010-07-07 07:31:07 51°16.143 2°57.739 19.7301 4.21344 30.403895 -0.721976
2010-07-07 07:31:12 51°16.14 2°57.745 19.7311 4.213124 30.399816 -0.7568
2010-07-07 07:31:17 51°16.138 2°57.75 19.7325 4.212807 30.396247 -0.721976
2010-07-07 07:31:23 51°16.135 2°57.756 19.7316 4.212913 30.396585 -0.652328
2010-07-07 07:31:27 51°16.133 2°57.76 19.7331 4.212913 30.396585 -0.652328
2010-07-07 07:31:31 51°16.131 2°57.764 19.733 4.212491 30.392679 -0.652328
2010-07-07 07:31:37 51°16.129 2°57.769 19.7353 4.212702 30.393355 -0.687152
2010-07-07 07:31:42 51°16.127 2°57.774 19.7338 4.212385 30.390298 -0.687152
2010-07-07 07:31:47 51°16.125 2°57.778 19.7334 4.212702 30.391313 -0.652328
2010-07-07 07:31:52 51°16.123 2°57.782 19.7372 4.212174 30.387579 -0.687152
2010-07-07 07:31:57 51°16.121 2°57.786 19.7363 4.212174 30.387579 -0.687152
2010-07-07 07:32:02 51°16.119 2°57.79 19.7386 4.212279 30.387407 -0.687152
2010-07-07 07:32:07 51°16.118 2°57.793 19.7376 4.212174 30.386047 -0.652328
2010-07-07 07:32:12 51°16.116 2°57.797 19.7386 4.211646 30.381293 -0.687152
2010-07-07 07:32:17 51°16.114 2°57.801 19.7399 4.211646 30.380272 -0.652328
2010-07-07 07:32:22 51°16.113 2°57.804 19.7392 4.211119 30.376028 -0.617504
2010-07-07 07:32:27 51°16.111 2°57.808 19.7403 4.211119 30.376028 -0.617504
2010-07-07 07:32:31 51°16.11 2°57.811 19.7416 4.211013 30.374669 -0.652328
2010-07-07 07:32:37 51°16.109 2°57.815 19.7408 4.210697 30.371103 -0.687152
2010-07-07 07:32:42 51°16.107 2°57.819 19.7415 4.210591 30.369744 -0.652328
2010-07-07 07:32:47 51°16.104 2°57.822 19.7437 4.210063 30.364991 -0.652328
2010-07-07 07:32:52 51°16.1 2°57.825 19.7448 4.210063 30.364991 -0.687152
2010-07-07 07:32:57 51°16.095 2°57.828 19.7471 4.210063 30.364991 -0.687152
2010-07-07 07:33:02 51°16.09 2°57.83 19.7467 4.209325 30.35803 -0.687152
2010-07-07 07:33:07 51°16.085 2°57.831 19.748 4.209008 30.354465 -0.652328
2010-07-07 07:33:12 51°16.08 2°57.831 19.7476 4.208797 30.352768 -0.687152
2010-07-07 07:33:17 51°16.074 2°57.83 19.7469 4.207953 30.345979 -0.687152
2010-07-07 07:33:22 51°16.067 2°57.828 19.7485 4.207742 30.343773 -0.687152
2010-07-07 07:33:27 51°16.06 2°57.823 19.7517 4.207742 30.343773 -0.687152
2010-07-07 07:33:32 51°16.054 2°57.816 19.7527 4.207425 30.340208 -0.687152
2010-07-07 07:33:37 51°16.048 2°57.808 19.752 4.207003 30.335795 -0.687152
2010-07-07 07:33:42 51°16.042 2°57.799 19.7486 4.206898 30.333928 -0.687152
2010-07-07 07:33:47 51°16.037 2°57.787 19.7529 4.205948 30.325274 -0.687152
2010-07-07 07:33:52 51°16.032 2°57.775 19.7496 4.204893 30.315773 -0.652328
2010-07-07 07:33:57 51°16.029 2°57.761 19.7481 4.204893 30.315773 -0.652328
2010-07-07 07:34:02 51°16.026 2°57.746 19.7465 4.203943 30.308139 -0.652328
2010-07-07 07:34:07 51°16.025 2°57.729 19.7501 4.202888 30.298639 -0.652328
2010-07-07 07:34:12 51°16.025 2°57.711 19.749 4.201727 30.288801 -0.652328
2010-07-07 07:34:17 51°16.026 2°57.692 19.7505 4.201094 30.283204 -0.617504
2010-07-07 07:34:22 51°16.029 2°57.673 19.7496 4.200039 30.273707 -0.617504
2010-07-07 07:34:27 51°16.033 2°57.653 19.7509 4.200039 30.273707 -0.617504
2010-07-07 07:34:32 51°16.038 2°57.633 19.7495 4.199828 30.272519 -0.617504
2010-07-07 07:34:37 51°16.045 2°57.613 19.7454 4.199089 30.266583 -0.617504
2010-07-07 07:34:42 51°16.051 2°57.592 19.7435 4.198562 30.262343 -0.652328
2010-07-07 07:34:47 51°16.058 2°57.57 19.7448 4.197929 30.258271 -0.617504
2010-07-07 07:34:52 51°16.066 2°57.549 19.7451 4.198034 30.259119 -0.617504
2010-07-07 07:34:57 51°16.074 2°57.526 19.7443 4.198034 30.259119 -0.617504
2010-07-07 07:35:02 51°16.083 2°57.504 19.7473 4.197718 30.256575 -0.617504
2010-07-07 07:35:07 51°16.091 2°57.481 19.7491 4.19814 30.259459 -0.652328
2010-07-07 07:35:12 51°16.101 2°57.459 19.7432 4.197296 30.252168 -0.617504
2010-07-07 07:35:17 51°16.11 2°57.436 19.7404 4.197507 30.25234 -0.58268
2010-07-07 07:35:22 51°16.119 2°57.413 19.7414 4.198878 30.262855 -0.617504
2010-07-07 07:35:27 51°16.128 2°57.389 19.7421 4.198878 30.262855 -0.617504
2010-07-07 07:35:32 51°16.136 2°57.365 19.7358 4.199617 30.269299 -0.617504
2010-07-07 07:35:37 51°16.145 2°57.341 19.7387 4.201305 30.283375 -0.617504
2010-07-07 07:35:42 51°16.153 2°57.317 19.7364 4.202782 30.295248 -0.617504
2010-07-07 07:35:47 51°16.161 2°57.292 19.732 4.20426 30.307631 -0.617504
2010-07-07 07:35:52 51°16.17 2°57.268 19.7391 4.206054 30.321032 -0.617504
2010-07-07 07:35:57 51°16.178 2°57.244 19.7258 4.206054 30.321032 -0.617504
2010-07-07 07:36:02 51°16.187 2°57.219 19.7264 4.207425 30.333586 -0.652328
2010-07-07 07:36:07 51°16.195 2°57.195 19.7283 4.208269 30.340372 -0.652328
2010-07-07 07:36:12 51°16.204 2°57.17 19.7312 4.210907 30.362601 -0.652328
2010-07-07 07:36:17 51°16.212 2°57.146 19.7193 4.212596 30.376686 -0.617504
2010-07-07 07:36:22 51°16.221 2°57.121 19.7166 4.213968 30.388227 -0.652328
2010-07-07 07:36:27 51°16.229 2°57.096 19.7106 4.213968 30.388227 -0.652328
2010-07-07 07:36:32 51°16.238 2°57.072 19.7054 4.216183 30.4086 -0.687152
2010-07-07 07:36:37 51°16.246 2°57.047 19.6942 4.218083 30.42541 -0.652328
2010-07-07 07:36:42 51°16.254 2°57.022 19.6882 4.219244 30.436792 -0.652328
2010-07-07 07:36:47 51°16.261 2°56.997 19.6835 4.220193 30.446478 -0.652328
2010-07-07 07:36:52 51°16.269 2°56.972 19.6744 4.221038 30.454293 -0.652328
2010-07-07 07:36:57 51°16.276 2°56.946 19.6725 4.221038 30.454293 -0.652328
2010-07-07 07:37:03 51°16.284 2°56.915 19.6686 4.221354 30.459398 -0.652328
2010-07-07 07:37:07 51°16.289 2°56.895 19.6691 4.221565 30.463655 -0.652328
2010-07-07 07:37:11 51°16.295 2°56.874 19.662 4.222198 30.470799 -0.652328
2010-07-07 07:37:17 51°16.303 2°56.844 19.6571 4.222515 30.476419 -0.687152
2010-07-07 07:37:23 51°16.311 2°56.812 19.6538 4.222621 30.482391 -0.652328
2010-07-07 07:37:27 51°16.316 2°56.792 19.6541 4.222621 30.482391 -0.652328
2010-07-07 07:37:31 51°16.321 2°56.771 19.653 4.223148 30.492277 -0.652328
2010-07-07 07:37:37 51°16.329 2°56.74 19.6497 4.223465 30.498415 -0.687152
2010-07-07 07:37:42 51°16.337 2°56.714 19.6479 4.224309 30.509831 -0.652328
2010-07-07 07:37:47 51°16.343 2°56.688 19.6492 4.224415 30.51376 -0.652328
2010-07-07 07:37:52 51°16.35 2°56.662 19.6487 4.22547 30.527396 -0.652328
2010-07-07 07:37:57 51°16.357 2°56.637 19.6429 4.22547 30.527396 -0.652328
2010-07-07 07:38:02 51°16.365 2°56.611 19.6426 4.22547 30.531505 -0.687152
2010-07-07 07:38:07 51°16.371 2°56.585 19.6383 4.225259 30.531859 -0.617504
2010-07-07 07:38:12 51°16.378 2°56.559 19.6335 4.225365 30.534251 -0.617504
2010-07-07 07:38:17 51°16.385 2°56.534 19.6288 4.225787 30.540223 -0.617504
2010-07-07 07:38:22 51°16.392 2°56.508 19.6268 4.226526 30.548233 -0.652328
2010-07-07 07:38:27 51°16.399 2°56.483 19.6291 4.226526 30.548233 -0.652328
2010-07-07 07:38:32 51°16.406 2°56.457 19.6338 4.227475 30.556403 -0.652328
2010-07-07 07:38:37 51°16.413 2°56.432 19.6248 4.228636 30.56679 -0.652328
2010-07-07 07:38:42 51°16.42 2°56.407 19.6235 4.22948 30.57617 -0.687152
2010-07-07 07:38:47 51°16.428 2°56.381 19.6245 4.230324 30.585551 -0.652328
2010-07-07 07:38:52 51°16.435 2°56.356 19.6206 4.230747 30.591015 -0.652328
2010-07-07 07:38:57 51°16.443 2°56.331 19.6219 4.230747 30.591015 -0.652328
2010-07-07 07:39:02 51°16.451 2°56.306 19.6093 4.230641 30.59377 -0.687152
2010-07-07 07:39:07 51°16.458 2°56.281 19.6075 4.230536 30.594465 -0.687152
2010-07-07 07:39:11 51°16.465 2°56.262 19.5983 4.229691 30.588686 -0.652328
2010-07-07 07:39:17 51°16.475 2°56.232 19.594 4.228953 30.584788 -0.687152
2010-07-07 07:39:22 51°16.484 2°56.208 19.5894 4.228531 30.583444 -0.687152
2010-07-07 07:39:27 51°16.493 2°56.184 19.588 4.228531 30.583444 -0.687152
2010-07-07 07:39:32 51°16.501 2°56.16 19.5815 4.228847 30.585483 -0.687152
2010-07-07 07:39:37 51°16.51 2°56.135 19.577 4.228953 30.588395 -0.687152
2010-07-07 07:39:42 51°16.518 2°56.111 19.5765 4.228742 30.589269 -0.687152
2010-07-07 07:39:47 51°16.526 2°56.086 19.5732 4.22927 30.596619 -0.687152
2010-07-07 07:39:51 51°16.532 2°56.066 19.5721 4.229586 30.603298 -0.652328
2010-07-07 07:39:57 51°16.541 2°56.036 19.5646 4.229586 30.603298 -0.652328
2010-07-07 07:40:02 51°16.549 2°56.011 19.5531 4.230008 30.611348 -0.652328
2010-07-07 07:40:07 51°16.556 2°55.986 19.5499 4.230325 30.618032 -0.652328
2010-07-07 07:40:11 51°16.561 2°55.966 19.5417 4.230536 30.623349 -0.652328
2010-07-07 07:40:17 51°16.57 2°55.936 19.5365 4.230325 30.625776 -0.687152
2010-07-07 07:40:22 51°16.577 2°55.91 19.5176 4.230747 30.631768 -0.687152
2010-07-07 07:40:27 51°16.584 2°55.885 19.5009 4.230747 30.631768 -0.687152
2010-07-07 07:40:32 51°16.592 2°55.86 19.4957 4.230536 30.63368 -0.617504
2010-07-07 07:40:37 51°16.599 2°55.834 19.4976 4.231169 30.641378 -0.652328
2010-07-07 07:40:42 51°16.606 2°55.809 19.4939 4.230959 30.64536 -0.617504
2010-07-07 07:40:47 51°16.613 2°55.784 19.4976 4.232119 30.658877 -0.652328
2010-07-07 07:40:51 51°16.619 2°55.764 19.4947 4.232119 30.658877 -0.652328
2010-07-07 07:40:57 51°16.628 2°55.734 19.4965 4.232964 30.670874 -0.652328
2010-07-07 07:41:02 51°16.636 2°55.709 19.4897 4.23423 30.688362 -0.652328
2010-07-07 07:41:07 51°16.644 2°55.684 19.4849 4.236868 30.718508 -0.652328
2010-07-07 07:41:12 51°16.653 2°55.66 19.4784 4.23824 30.740508 -0.617504
2010-07-07 07:41:17 51°16.661 2°55.635 19.4752 4.238662 30.74808 -0.617504
2010-07-07 07:41:22 51°16.67 2°55.611 19.4653 4.238768 30.753092 -0.617504
2010-07-07 07:41:27 51°16.678 2°55.587 19.4595 4.238768 30.753092 -0.617504
2010-07-07 07:41:32 51°16.687 2°55.562 19.4579 4.238029 30.748153 -0.617504
2010-07-07 07:41:37 51°16.696 2°55.538 19.4491 4.238663 30.755357 -0.652328
2010-07-07 07:41:42 51°16.705 2°55.514 19.4456 4.238663 30.756917 -0.617504
2010-07-07 07:41:47 51°16.713 2°55.49 19.4406 4.238768 30.761932 -0.652328
2010-07-07 07:41:52 51°16.722 2°55.465 19.4349 4.239507 30.772075 -0.617504
2010-07-07 07:41:57 51°16.731 2°55.441 19.4291 4.239507 30.772075 -0.617504
2010-07-07 07:42:02 51°16.74 2°55.417 19.4286 4.240246 30.78118 -0.617504
2010-07-07 07:42:07 51°16.749 2°55.393 19.4204 4.240562 30.789473 -0.617504
2010-07-07 07:42:12 51°16.758 2°55.369 19.4189 4.240668 30.794496 -0.58268
2010-07-07 07:42:17 51°16.767 2°55.345 19.4095 4.240774 30.79952 -0.617504
2010-07-07 07:42:22 51°16.775 2°55.32 19.4021 4.240879 30.806632 -0.617504
2010-07-07 07:42:27 51°16.784 2°55.296 19.3928 4.240879 30.806632 -0.617504
2010-07-07 07:42:32 51°16.793 2°55.272 19.3877 4.240985 30.811138 -0.617504
2010-07-07 07:42:37 51°16.802 2°55.248 19.38 4.240563 30.810847 -0.58268
2010-07-07 07:42:42 51°16.811 2°55.225 19.3736 4.240352 30.814354 -0.617504
2010-07-07 07:42:47 51°16.819 2°55.2 19.3687 4.240141 30.816297 -0.617504
2010-07-07 07:42:52 51°16.828 2°55.176 19.3629 4.239824 30.816862 -0.617504
2010-07-07 07:42:57 51°16.837 2°55.152 19.357 4.239824 30.816862 -0.617504
2010-07-07 07:43:02 51°16.845 2°55.127 19.3564 4.239297 30.817283 -0.58268
2010-07-07 07:43:07 51°16.853 2°55.103 19.3534 4.239508 30.82474 -0.617504
2010-07-07 07:43:12 51°16.86 2°55.078 19.3449 4.239508 30.830487 -0.617504
2010-07-07 07:43:17 51°16.868 2°55.053 19.322 4.238875 30.832146 -0.617504
2010-07-07 07:43:22 51°16.875 2°55.028 19.2924 4.238242 30.834851 -0.617504
2010-07-07 07:43:27 51°16.882 2°55.003 19.2755 4.238242 30.834851 -0.617504
2010-07-07 07:43:32 51°16.889 2°54.978 19.2652 4.238031 30.836799 -0.58268
2010-07-07 07:43:37 51°16.896 2°54.953 19.2539 4.237609 30.839128 -0.58268
2010-07-07 07:43:42 51°16.903 2°54.928 19.2474 4.237293 30.840744 -0.617504
2010-07-07 07:43:47 51°16.91 2°54.903 19.248 4.236976 30.841314 -0.617504
2010-07-07 07:43:52 51°16.917 2°54.878 19.2449 4.236976 30.848121 -0.617504
2010-07-07 07:43:57 51°16.925 2°54.853 19.2483 4.236976 30.848121 -0.617504
2010-07-07 07:44:03 51°16.933 2°54.822 19.2423 4.238032 30.865077 -0.687152
2010-07-07 07:44:07 51°16.939 2°54.802 19.241 4.239087 30.888339 -0.687152
2010-07-07 07:44:12 51°16.946 2°54.777 19.2413 4.240143 30.911627 -0.687152
2010-07-07 07:44:17 51°16.953 2°54.752 19.2398 4.240459 30.926822 -0.687152
2010-07-07 07:44:22 51°16.96 2°54.726 19.2371 4.24046 30.935243 -0.721976
2010-07-07 07:44:27 51°16.967 2°54.701 19.2404 4.24046 30.935243 -0.721976
2010-07-07 07:44:32 51°16.974 2°54.676 19.2391 4.240354 30.940175 -0.687152
2010-07-07 07:44:37 51°16.982 2°54.651 19.2387 4.239616 30.938375 -0.687152
2010-07-07 07:44:42 51°16.989 2°54.626 19.2386 4.23951 30.941203 -0.687152
2010-07-07 07:44:47 51°16.996 2°54.6 19.24 4.238877 30.938682 -0.721976
2010-07-07 07:44:52 51°17.003 2°54.575 19.2393 4.23856 30.937157 -0.687152
2010-07-07 07:44:57 51°17.01 2°54.55 19.2399 4.23856 30.937157 -0.687152
2010-07-07 07:45:02 51°17.017 2°54.524 19.2401 4.238561 30.940846 -0.652328
2010-07-07 07:45:07 51°17.024 2°54.499 19.2386 4.238349 30.939127 -0.687152
2010-07-07 07:45:12 51°17.031 2°54.474 19.2348 4.238138 30.937935 -0.652328
2010-07-07 07:45:17 51°17.037 2°54.451 19.2331 4.237716 30.935024 -0.687152
2010-07-07 07:45:22 51°17.044 2°54.429 19.2322 4.237822 30.93641 -0.687152
2010-07-07 07:45:27 51°17.05 2°54.41 19.2359 4.237822 30.93641 -0.687152
2010-07-07 07:45:32 51°17.056 2°54.393 19.2332 4.237927 30.936743 -0.687152
2010-07-07 07:45:37 51°17.062 2°54.378 19.2319 4.237505 30.933832 -0.687152
2010-07-07 07:45:42 51°17.069 2°54.365 19.2318 4.237294 30.93264 -0.721976
2010-07-07 07:45:47 51°17.076 2°54.354 19.2327 4.2374 30.934026 -0.687152
2010-07-07 07:45:52 51°17.083 2°54.345 19.2336 4.237505 30.934359 -0.652328
2010-07-07 07:45:57 51°17.091 2°54.337 19.2343 4.237505 30.934359 -0.652328
2010-07-07 07:46:02 51°17.098 2°54.332 19.2326 4.2374 30.934553 -0.721976
2010-07-07 07:46:07 51°17.105 2°54.327 19.2355 4.237189 30.933361 -0.652328
2010-07-07 07:46:12 51°17.113 2°54.324 19.239 4.237083 30.933556 -0.687152
2010-07-07 07:46:17 51°17.12 2°54.323 19.2423 4.236978 30.934804 -0.687152
2010-07-07 07:46:22 51°17.127 2°54.322 19.2459 4.236872 30.933944 -0.687152
2010-07-07 07:46:27 51°17.134 2°54.322 19.2465 4.236872 30.933944 -0.687152
2010-07-07 07:46:32 51°17.141 2°54.323 19.2439 4.236872 30.933417 -0.687152
2010-07-07 07:46:37 51°17.148 2°54.324 19.2428 4.23645 30.929979 -0.687152
2010-07-07 07:46:42 51°17.155 2°54.327 19.2451 4.23645 30.930506 -0.721976
2010-07-07 07:46:47 51°17.161 2°54.331 19.2466 4.236767 30.933085 -0.687152
2010-07-07 07:46:52 51°17.168 2°54.336 19.2472 4.236556 30.929785 -0.721976
2010-07-07 07:46:57 51°17.174 2°54.341 19.2499 4.236556 30.929785 -0.721976
2010-07-07 07:47:02 51°17.18 2°54.347 19.2511 4.236345 30.926486 -0.721976
2010-07-07 07:47:07 51°17.185 2°54.354 19.2531 4.23645 30.925765 -0.721976
2010-07-07 07:47:12 51°17.191 2°54.361 19.2543 4.236661 30.926957 -0.721976
2010-07-07 07:47:17 51°17.196 2°54.368 19.2549 4.236661 30.925903 -0.687152
2010-07-07 07:47:22 51°17.2 2°54.376 19.2563 4.236767 30.926763 -0.721976
2010-07-07 07:47:27 51°17.205 2°54.384 19.2621 4.236767 30.926763 -0.721976
2010-07-07 07:47:32 51°17.208 2°54.393 19.262 4.236661 30.924323 -0.721976
2010-07-07 07:47:37 51°17.212 2°54.401 19.2634 4.236872 30.924989 -0.721976
2010-07-07 07:47:42 51°17.215 2°54.409 19.2635 4.236978 30.924268 -0.687152
2010-07-07 07:47:47 51°17.219 2°54.418 19.2667 4.237189 30.924933 -0.687152
2010-07-07 07:47:52 51°17.222 2°54.426 19.2698 4.237189 30.924407 -0.721976
2010-07-07 07:47:57 51°17.226 2°54.434 19.2714 4.237189 30.924407 -0.721976
2010-07-07 07:48:02 51°17.229 2°54.442 19.2724 4.237505 30.925405 -0.721976
2010-07-07 07:48:07 51°17.232 2°54.45 19.2739 4.237294 30.922633 -0.652328
2010-07-07 07:48:11 51°17.234 2°54.457 19.2754 4.2374 30.92086 -0.721976
2010-07-07 07:48:17 51°17.237 2°54.467 19.2745 4.237505 30.921719 -0.721976
2010-07-07 07:48:22 51°17.24 2°54.474 19.2759 4.237716 30.921332 -0.721976
2010-07-07 07:48:27 51°17.242 2°54.482 19.2744 4.237716 30.921332 -0.721976
2010-07-07 07:48:32 51°17.244 2°54.49 19.2747 4.237611 30.919947 -0.687152
2010-07-07 07:48:37 51°17.247 2°54.498 19.2729 4.237716 30.919227 -0.687152
2010-07-07 07:48:42 51°17.249 2°54.506 19.2739 4.237927 30.918313 -0.687152
2010-07-07 07:48:47 51°17.251 2°54.514 19.2771 4.238244 30.919838 -0.687152
2010-07-07 07:48:51 51°17.253 2°54.52 19.2753 4.238244 30.919311 -0.687152
2010-07-07 07:48:57 51°17.256 2°54.529 19.2781 4.238244 30.919311 -0.687152
2010-07-07 07:49:02 51°17.258 2°54.537 19.2778 4.23856 30.921362 -0.721976
2010-07-07 07:49:07 51°17.26 2°54.545 19.2769 4.238349 30.919644 -0.687152
2010-07-07 07:49:12 51°17.262 2°54.552 19.2768 4.238666 30.921168 -0.687152
2010-07-07 07:49:17 51°17.264 2°54.56 19.2757 4.238771 30.921501 -0.687152
2010-07-07 07:49:23 51°17.267 2°54.569 19.276 4.238666 30.920642 -0.687152
2010-07-07 07:49:27 51°17.268 2°54.575 19.2768 4.238666 30.920642 -0.687152
2010-07-07 07:49:32 51°17.271 2°54.582 19.2758 4.238666 30.920642 -0.687152
2010-07-07 07:49:37 51°17.273 2°54.59 19.2805 4.238771 30.920449 -0.721976
2010-07-07 07:49:42 51°17.275 2°54.597 19.2812 4.238877 30.919729 -0.721976
2010-07-07 07:49:47 51°17.277 2°54.605 19.2822 4.238982 30.921114 -0.721976
2010-07-07 07:49:52 51°17.279 2°54.612 19.283 4.238982 30.921114 -0.721976
2010-07-07 07:49:57 51°17.281 2°54.619 19.2849 4.238771 30.91887 -0.721976
2010-07-07 07:50:03 51°17.284 2°54.628 19.2865 4.238877 30.919729 -0.721976
2010-07-07 07:50:07 51°17.286 2°54.634 19.2881 4.238982 30.920588 -0.687152
2010-07-07 07:50:12 51°17.288 2°54.641 19.292 4.238982 30.921114 -0.721976
2010-07-07 07:50:17 51°17.29 2°54.648 19.2953 4.239193 30.921779 -0.687152
2010-07-07 07:50:22 51°17.292 2°54.655 19.2945 4.239088 30.92092 -0.687152
2010-07-07 07:50:27 51°17.294 2°54.662 19.2968 4.239088 30.92092 -0.687152
2010-07-07 07:50:32 51°17.296 2°54.669 19.2992 4.239193 30.920201 -0.687152
2010-07-07 07:50:37 51°17.299 2°54.675 19.3009 4.239299 30.920007 -0.687152
2010-07-07 07:50:43 51°17.301 2°54.683 19.3054 4.239404 30.919814 -0.687152
2010-07-07 07:50:47 51°17.303 2°54.689 19.3045 4.239299 30.917377 -0.687152
2010-07-07 07:50:52 51°17.306 2°54.695 19.3055 4.23951 30.917517 -0.687152
2010-07-07 07:50:57 51°17.308 2°54.702 19.306 4.23951 30.917517 -0.687152
2010-07-07 07:51:02 51°17.31 2°54.708 19.3068 4.239826 30.917989 -0.687152
2010-07-07 07:51:07 51°17.313 2°54.714 19.3077 4.239404 30.912977 -0.687152
2010-07-07 07:51:12 51°17.316 2°54.72 19.3102 4.240037 30.916025 -0.721976
2010-07-07 07:51:17 51°17.318 2°54.727 19.3101 4.240248 30.916165 -0.687152
2010-07-07 07:51:22 51°17.32 2°54.733 19.3114 4.240354 30.91492 -0.652328
2010-07-07 07:51:27 51°17.323 2°54.739 19.3117 4.240354 30.91492 -0.652328
2010-07-07 07:51:32 51°17.326 2°54.745 19.3137 4.240565 30.91506 -0.652328
2010-07-07 07:51:37 51°17.328 2°54.751 19.3147 4.24067 30.915392 -0.687152
2010-07-07 07:51:42 51°17.331 2°54.757 19.3148 4.240565 30.913483 -0.687152
2010-07-07 07:51:47 51°17.334 2°54.763 19.3159 4.24067 30.91329 -0.687152
2010-07-07 07:51:52 51°17.336 2°54.769 19.3175 4.241092 30.915672 -0.687152
2010-07-07 07:51:57 51°17.339 2°54.776 19.3177 4.241092 30.915672 -0.687152
2010-07-07 07:52:02 51°17.341 2°54.782 19.3182 4.241198 30.916004 -0.687152
2010-07-07 07:52:07 51°17.343 2°54.788 19.3202 4.241198 30.914953 -0.721976
2010-07-07 07:52:11 51°17.345 2°54.793 19.3195 4.241198 30.914428 -0.687152
2010-07-07 07:52:17 51°17.348 2°54.8 19.32 4.240881 30.910802 -0.721976
2010-07-07 07:52:22 51°17.35 2°54.807 19.3202 4.241092 30.911993 -0.721976
2010-07-07 07:52:27 51°17.352 2°54.813 19.3225 4.241092 30.911993 -0.721976
2010-07-07 07:52:32 51°17.355 2°54.819 19.3214 4.241514 30.913324 -0.687152
2010-07-07 07:52:37 51°17.357 2°54.825 19.3225 4.241514 30.912798 -0.687152
2010-07-07 07:52:42 51°17.359 2°54.831 19.3236 4.241409 30.91194 -0.687152
2010-07-07 07:52:47 51°17.361 2°54.837 19.3245 4.24162 30.912605 -0.652328
2010-07-07 07:52:51 51°17.363 2°54.842 19.3232 4.241831 30.913271 -0.652328
2010-07-07 07:52:57 51°17.365 2°54.85 19.3251 4.241831 30.913271 -0.652328
2010-07-07 07:53:02 51°17.367 2°54.856 19.325 4.241831 30.912745 -0.652328
2010-07-07 07:53:07 51°17.369 2°54.862 19.3272 4.241831 30.912745 -0.652328
2010-07-07 07:53:12 51°17.371 2°54.868 19.327 4.241725 30.910311 -0.687152
2010-07-07 07:53:17 51°17.373 2°54.875 19.329 4.241514 30.909121 -0.687152
2010-07-07 07:53:22 51°17.375 2°54.881 19.3294 4.241936 30.911502 -0.687152
2010-07-07 07:53:27 51°17.377 2°54.887 19.3302 4.241936 30.911502 -0.687152
2010-07-07 07:53:31 51°17.378 2°54.892 19.3305 4.241936 30.911502 -0.652328
2010-07-07 07:53:37 51°17.381 2°54.899 19.3312 4.241936 30.910977 -0.687152
2010-07-07 07:53:42 51°17.382 2°54.906 19.3304 4.242042 30.911309 -0.652328
2010-07-07 07:53:47 51°17.385 2°54.912 19.3307 4.242147 30.911117 -0.652328
2010-07-07 07:53:52 51°17.386 2°54.918 19.3312 4.242147 30.911117 -0.652328
2010-07-07 07:53:57 51°17.388 2°54.924 19.3329 4.242147 30.911117 -0.652328
2010-07-07 07:54:03 51°17.391 2°54.932 19.333 4.242147 30.910066 -0.687152
2010-07-07 07:54:07 51°17.392 2°54.937 19.3346 4.242253 30.909874 -0.652328
2010-07-07 07:54:12 51°17.394 2°54.943 19.3346 4.242569 30.911397 -0.687152
2010-07-07 07:54:17 51°17.396 2°54.949 19.3351 4.242464 30.910014 -0.652328
2010-07-07 07:54:22 51°17.398 2°54.956 19.3341 4.242569 30.911397 -0.652328
2010-07-07 07:54:27 51°17.4 2°54.962 19.334 4.242569 30.911397 -0.652328
2010-07-07 07:54:32 51°17.402 2°54.968 19.3349 4.242358 30.908631 -0.687152
2010-07-07 07:54:37 51°17.403 2°54.974 19.3348 4.242569 30.910346 -0.687152
2010-07-07 07:54:43 51°17.406 2°54.982 19.3349 4.242675 30.910679 -0.687152
2010-07-07 07:54:47 51°17.407 2°54.987 19.3354 4.24278 30.910487 -0.687152
2010-07-07 07:54:52 51°17.409 2°54.993 19.3368 4.242991 30.911677 -0.652328
2010-07-07 07:54:57 51°17.411 2°54.999 19.3364 4.242991 30.911677 -0.652328
2010-07-07 07:55:02 51°17.413 2°55.006 19.3374 4.242886 30.910819 -0.652328
2010-07-07 07:55:07 51°17.415 2°55.012 19.3372 4.242886 30.910294 -0.617504
2010-07-07 07:55:12 51°17.416 2°55.018 19.3369 4.243097 30.911484 -0.617504
2010-07-07 07:55:17 51°17.418 2°55.024 19.338 4.243097 30.91201 -0.652328
2010-07-07 07:55:22 51°17.42 2°55.031 19.3376 4.242886 30.909769 -0.652328
2010-07-07 07:55:27 51°17.422 2°55.037 19.3378 4.242886 30.909769 -0.652328
2010-07-07 07:55:32 51°17.424 2°55.043 19.3379 4.242991 30.910102 -0.652328
2010-07-07 07:55:37 51°17.425 2°55.049 19.3364 4.243097 30.910959 -0.652328
2010-07-07 07:55:42 51°17.427 2°55.056 19.3351 4.24278 30.908386 -0.687152
2010-07-07 07:55:47 51°17.429 2°55.062 19.3344 4.24278 30.907861 -0.687152
2010-07-07 07:55:52 51°17.431 2°55.068 19.3354 4.242991 30.909052 -0.652328
2010-07-07 07:55:57 51°17.432 2°55.074 19.3365 4.242991 30.909052 -0.652328
2010-07-07 07:56:02 51°17.434 2°55.08 19.3363 4.243202 30.910767 -0.652328
2010-07-07 07:56:07 51°17.436 2°55.087 19.337 4.243202 30.910242 -0.687152
2010-07-07 07:56:11 51°17.437 2°55.092 19.3363 4.243202 30.910242 -0.687152
2010-07-07 07:56:17 51°17.44 2°55.099 19.3376 4.242991 30.909052 -0.652328
2010-07-07 07:56:22 51°17.441 2°55.105 19.3388 4.243202 30.910767 -0.687152
2010-07-07 07:56:27 51°17.443 2°55.111 19.3391 4.243202 30.910767 -0.687152
2010-07-07 07:56:32 51°17.445 2°55.117 19.3387 4.243097 30.910434 -0.652328
2010-07-07 07:56:37 51°17.447 2°55.123 19.3378 4.243097 30.910959 -0.652328
2010-07-07 07:56:42 51°17.449 2°55.129 19.3358 4.243202 30.911292 -0.652328
2010-07-07 07:56:47 51°17.451 2°55.135 19.334 4.243097 30.910434 -0.652328
2010-07-07 07:56:51 51°17.452 2°55.14 19.3346 4.242991 30.909577 -0.652328
2010-07-07 07:56:57 51°17.455 2°55.147 19.3327 4.242991 30.909577 -0.652328
2010-07-07 07:57:02 51°17.457 2°55.153 19.3331 4.243097 30.910434 -0.687152
2010-07-07 07:57:07 51°17.459 2°55.159 19.3337 4.243097 30.909909 -0.687152
2010-07-07 07:57:12 51°17.461 2°55.165 19.3327 4.243202 30.910242 -0.687152
2010-07-07 07:57:17 51°17.463 2°55.171 19.3328 4.243413 30.911957 -0.687152
2010-07-07 07:57:22 51°17.465 2°55.177 19.3345 4.243308 30.9111 -0.652328
2010-07-07 07:57:27 51°17.467 2°55.183 19.3341 4.243308 30.9111 -0.652328
2010-07-07 07:57:32 51°17.469 2°55.189 19.3352 4.243308 30.9111 -0.652328
2010-07-07 07:57:37 51°17.471 2°55.195 19.3362 4.243519 30.91439 -0.652328
2010-07-07 07:57:42 51°17.473 2°55.201 19.3355 4.242991 30.910627 -0.687152
2010-07-07 07:57:47 51°17.475 2°55.207 19.3351 4.243097 30.912535 -0.687152
2010-07-07 07:57:52 51°17.477 2°55.213 19.3337 4.243202 30.912867 -0.652328
2010-07-07 07:57:57 51°17.479 2°55.219 19.3339 4.243202 30.912867 -0.652328
2010-07-07 07:58:02 51°17.481 2°55.225 19.3337 4.242991 30.911152 -0.652328
2010-07-07 07:58:07 51°17.484 2°55.231 19.3333 4.243097 30.911484 -0.687152
2010-07-07 07:58:12 51°17.486 2°55.237 19.3324 4.243413 30.914583 -0.652328
2010-07-07 07:58:17 51°17.488 2°55.243 19.3314 4.242886 30.909244 -0.687152
2010-07-07 07:58:22 51°17.49 2°55.249 19.3308 4.243202 30.911817 -0.687152
2010-07-07 07:58:27 51°17.492 2°55.255 19.3318 4.243202 30.911817 -0.687152
2010-07-07 07:58:32 51°17.494 2°55.261 19.332 4.243097 30.910959 -0.652328
2010-07-07 07:58:37 51°17.496 2°55.268 19.3348 4.243202 30.912342 -0.687152
2010-07-07 07:58:42 51°17.498 2°55.274 19.3354 4.243097 30.911484 -0.652328
2010-07-07 07:58:47 51°17.5 2°55.279 19.3362 4.243097 30.912535 -0.652328
2010-07-07 07:58:52 51°17.502 2°55.286 19.3372 4.243097 30.912535 -0.652328
2010-07-07 07:58:57 51°17.504 2°55.292 19.3394 4.243097 30.912535 -0.687152
2010-07-07 07:59:03 51°17.507 2°55.299 19.3408 4.243097 30.912535 -0.687152
2010-07-07 07:59:07 51°17.508 2°55.304 19.341 4.243097 30.91306 -0.652328
2010-07-07 07:59:12 51°17.51 2°55.31 19.3407 4.243202 30.913918 -0.721976
2010-07-07 07:59:17 51°17.512 2°55.316 19.3394 4.243097 30.91201 -0.721976
2010-07-07 07:59:22 51°17.514 2°55.322 19.3389 4.242991 30.910102 -0.687152
2010-07-07 07:59:27 51°17.516 2°55.328 19.3381 4.242991 30.910102 -0.687152
2010-07-07 07:59:32 51°17.518 2°55.335 19.339 4.243308 30.912675 -0.687152
2010-07-07 07:59:37 51°17.52 2°55.341 19.3381 4.243308 30.911625 -0.687152
2010-07-07 07:59:42 51°17.522 2°55.347 19.3386 4.243413 30.911432 -0.721976
2010-07-07 07:59:47 51°17.523 2°55.353 19.3395 4.243413 30.910382 -0.652328
2010-07-07 07:59:52 51°17.525 2°55.359 19.3395 4.243308 30.910049 -0.687152
2010-07-07 07:59:57 51°17.527 2°55.365 19.3386 4.243308 30.910049 -0.687152
2010-07-07 08:00:02 51°17.529 2°55.371 19.3393 4.243519 30.910715 -0.652328
2010-07-07 08:00:07 51°17.531 2°55.377 19.3392 4.243519 30.91124 -0.721976
2010-07-07 08:00:12 51°17.533 2°55.384 19.3402 4.243624 30.912097 -0.687152
2010-07-07 08:00:17 51°17.535 2°55.39 19.3405 4.243413 30.910382 -0.687152
2010-07-07 08:00:22 51°17.536 2°55.396 19.3404 4.243413 30.910907 -0.687152
2010-07-07 08:00:27 51°17.538 2°55.402 19.342 4.243413 30.910907 -0.687152
2010-07-07 08:00:32 51°17.54 2°55.408 19.3424 4.243624 30.912097 -0.687152
2010-07-07 08:00:37 51°17.542 2°55.415 19.3445 4.243413 30.910382 -0.687152
2010-07-07 08:00:43 51°17.544 2°55.422 19.3459 4.24373 30.91348 -0.687152
2010-07-07 08:00:47 51°17.546 2°55.427 19.3474 4.243624 30.912097 -0.652328
2010-07-07 08:00:52 51°17.547 2°55.433 19.3486 4.243624 30.912097 -0.652328
2010-07-07 08:00:57 51°17.549 2°55.44 19.3491 4.243413 30.909857 -0.652328
2010-07-07 08:01:02 51°17.551 2°55.446 19.3503 4.243624 30.911047 -0.687152
2010-07-07 08:01:07 51°17.553 2°55.452 19.3505 4.243624 30.911047 -0.652328
2010-07-07 08:01:12 51°17.555 2°55.458 19.3502 4.243519 30.90914 -0.652328
2010-07-07 08:01:17 51°17.556 2°55.464 19.3495 4.24373 30.91033 -0.687152
2010-07-07 08:01:23 51°17.559 2°55.472 19.3493 4.243835 30.910138 -0.687152
2010-07-07 08:01:27 51°17.56 2°55.476 19.348 4.243835 30.910138 -0.687152
2010-07-07 08:01:32 51°17.562 2°55.482 19.348 4.243941 30.909945 -0.687152
2010-07-07 08:01:37 51°17.564 2°55.488 19.3473 4.244152 30.91061 -0.687152
2010-07-07 08:01:42 51°17.566 2°55.494 19.3452 4.244257 30.910418 -0.687152
2010-07-07 08:01:47 51°17.568 2°55.5 19.3452 4.244257 30.909893 -0.652328
2010-07-07 08:01:52 51°17.57 2°55.506 19.3434 4.244257 30.909368 -0.687152
2010-07-07 08:01:57 51°17.572 2°55.512 19.3431 4.244257 30.909368 -0.687152
2010-07-07 08:02:03 51°17.574 2°55.519 19.3429 4.244363 30.910226 -0.687152
2010-07-07 08:02:07 51°17.576 2°55.524 19.343 4.244257 30.909893 -0.652328
2010-07-07 08:02:12 51°17.578 2°55.53 19.3437 4.243941 30.907846 -0.687152
2010-07-07 08:02:17 51°17.58 2°55.536 19.344 4.244257 30.910418 -0.687152
2010-07-07 08:02:22 51°17.582 2°55.542 19.3459 4.244152 30.91061 -0.687152
2010-07-07 08:02:27 51°17.584 2°55.547 19.3456 4.244152 30.91061 -0.687152
2010-07-07 08:02:32 51°17.587 2°55.553 19.3456 4.244468 30.914233 -0.652328
2010-07-07 08:02:37 51°17.589 2°55.559 19.3456 4.244152 30.91166 -0.687152
2010-07-07 08:02:42 51°17.591 2°55.565 19.3465 4.243835 30.909088 -0.687152
2010-07-07 08:02:47 51°17.594 2°55.57 19.347 4.243835 30.910138 -0.687152
2010-07-07 08:02:52 51°17.596 2°55.576 19.3487 4.243941 30.91047 -0.652328
2010-07-07 08:02:57 51°17.598 2°55.582 19.3481 4.243941 30.91047 -0.652328
2010-07-07 08:03:02 51°17.6 2°55.587 19.3486 4.243941 30.91047 -0.687152
2010-07-07 08:03:07 51°17.603 2°55.593 19.3483 4.243835 30.909088 -0.687152
2010-07-07 08:03:11 51°17.604 2°55.598 19.3482 4.243941 30.909945 -0.687152
2010-07-07 08:03:17 51°17.607 2°55.604 19.3487 4.244046 30.911328 -0.721976
2010-07-07 08:03:22 51°17.61 2°55.61 19.348 4.244046 30.910278 -0.721976
2010-07-07 08:03:27 51°17.612 2°55.616 19.3477 4.244046 30.910278 -0.721976
2010-07-07 08:03:32 51°17.614 2°55.622 19.3482 4.244046 30.909753 -0.721976
2010-07-07 08:03:37 51°17.617 2°55.627 19.3486 4.243624 30.905798 -0.687152
2010-07-07 08:03:42 51°17.619 2°55.633 19.3491 4.244152 30.909561 -0.687152
2010-07-07 08:03:47 51°17.621 2°55.639 19.3492 4.244152 30.909561 -0.687152
2010-07-07 08:03:51 51°17.623 2°55.644 19.35 4.244152 30.909561 -0.721976
2010-07-07 08:03:57 51°17.626 2°55.651 19.3517 4.244152 30.909561 -0.721976
2010-07-07 08:04:02 51°17.628 2°55.656 19.3523 4.244257 30.910418 -0.687152
2010-07-07 08:04:07 51°17.631 2°55.662 19.3525 4.244363 30.911276 -0.721976
2010-07-07 08:04:12 51°17.633 2°55.668 19.3521 4.244152 30.909561 -0.721976
2010-07-07 08:04:17 51°17.635 2°55.674 19.352 4.244257 30.910418 -0.687152
2010-07-07 08:04:22 51°17.638 2°55.68 19.3519 4.244257 30.910418 -0.687152
2010-07-07 08:04:27 51°17.64 2°55.686 19.3511 4.244574 30.912466 -0.721976
2010-07-07 08:04:31 51°17.642 2°55.691 19.3521 4.244046 30.907654 -0.687152
2010-07-07 08:04:37 51°17.645 2°55.698 19.3513 4.244468 30.910558 -0.687152
2010-07-07 08:04:42 51°17.647 2°55.704 19.3504 4.244363 30.909701 -0.687152
2010-07-07 08:04:47 51°17.65 2°55.71 19.3505 4.244257 30.907794 -0.687152
2010-07-07 08:04:52 51°17.652 2°55.715 19.3507 4.244574 30.909841 -0.721976
2010-07-07 08:04:57 51°17.655 2°55.721 19.3516 4.244574 30.909841 -0.721976
2010-07-07 08:05:03 51°17.657 2°55.728 19.3526 4.244363 30.908651 -0.721976
2010-07-07 08:05:07 51°17.659 2°55.733 19.3528 4.244363 30.909176 -0.721976
2010-07-07 08:05:12 51°17.662 2°55.739 19.3529 4.244468 30.908984 -0.687152
2010-07-07 08:05:17 51°17.664 2°55.745 19.3524 4.244363 30.908651 -0.687152
2010-07-07 08:05:22 51°17.667 2°55.751 19.3534 4.244468 30.910034 -0.687152
2010-07-07 08:05:27 51°17.669 2°55.757 19.3515 4.244468 30.910034 -0.687152
2010-07-07 08:05:32 51°17.671 2°55.763 19.3524 4.244363 30.908651 -0.687152
2010-07-07 08:05:37 51°17.674 2°55.768 19.3524 4.244363 30.909176 -0.687152
2010-07-07 08:05:42 51°17.676 2°55.774 19.3516 4.244468 30.909509 -0.687152
2010-07-07 08:05:47 51°17.679 2°55.78 19.353 4.244363 30.909176 -0.687152
2010-07-07 08:05:51 51°17.681 2°55.785 19.3528 4.244468 30.907934 -0.721976
2010-07-07 08:05:57 51°17.684 2°55.792 19.3521 4.244468 30.907934 -0.721976
2010-07-07 08:06:02 51°17.686 2°55.798 19.3512 4.244468 30.908984 -0.687152
2010-07-07 08:06:07 51°17.688 2°55.804 19.3517 4.244468 30.908459 -0.687152
2010-07-07 08:06:12 51°17.691 2°55.81 19.3518 4.244363 30.907602 -0.652328
2010-07-07 08:06:17 51°17.693 2°55.816 19.351 4.244363 30.907602 -0.687152
2010-07-07 08:06:22 51°17.695 2°55.822 19.3506 4.244574 30.909317 -0.687152
2010-07-07 08:06:27 51°17.698 2°55.828 19.3515 4.244574 30.909317 -0.687152
2010-07-07 08:06:31 51°17.7 2°55.832 19.3519 4.244468 30.908459 -0.652328
2010-07-07 08:06:37 51°17.702 2°55.84 19.3513 4.244363 30.907602 -0.652328
2010-07-07 08:06:42 51°17.705 2°55.846 19.3523 4.244468 30.908984 -0.687152
2010-07-07 08:06:47 51°17.707 2°55.852 19.3535 4.244468 30.908984 -0.687152
2010-07-07 08:06:51 51°17.709 2°55.857 19.3524 4.244257 30.907269 -0.687152
2010-07-07 08:06:57 51°17.711 2°55.864 19.3532 4.244257 30.907269 -0.687152
2010-07-07 08:07:02 51°17.713 2°55.87 19.3538 4.244257 30.907794 -0.652328
2010-07-07 08:07:07 51°17.716 2°55.876 19.3534 4.244257 30.908319 -0.617504
2010-07-07 08:07:12 51°17.718 2°55.882 19.3534 4.244257 30.907269 -0.652328
2010-07-07 08:07:17 51°17.72 2°55.888 19.3539 4.243941 30.904697 -0.652328
2010-07-07 08:07:22 51°17.722 2°55.894 19.3537 4.244257 30.907269 -0.652328
2010-07-07 08:07:27 51°17.724 2°55.901 19.3535 4.244257 30.907269 -0.652328
2010-07-07 08:07:32 51°17.726 2°55.907 19.3542 4.244257 30.906745 -0.652328
2010-07-07 08:07:37 51°17.727 2°55.913 19.3548 4.244152 30.905887 -0.652328
2010-07-07 08:07:43 51°17.73 2°55.92 19.3544 4.244257 30.90622 -0.652328
2010-07-07 08:07:47 51°17.731 2°55.925 19.3554 4.244152 30.905363 -0.652328
2010-07-07 08:07:52 51°17.733 2°55.932 19.356 4.244363 30.907077 -0.617504
2010-07-07 08:07:57 51°17.735 2°55.938 19.356 4.244363 30.907077 -0.617504
2010-07-07 08:08:02 51°17.737 2°55.945 19.3552 4.244257 30.90622 -0.687152
2010-07-07 08:08:07 51°17.738 2°55.952 19.3558 4.244363 30.907077 -0.652328
2010-07-07 08:08:12 51°17.74 2°55.958 19.3569 4.244363 30.907077 -0.652328
2010-07-07 08:08:17 51°17.742 2°55.965 19.356 4.244257 30.90622 -0.687152
2010-07-07 08:08:23 51°17.743 2°55.974 19.3569 4.244363 30.906552 -0.652328
2010-07-07 08:08:27 51°17.745 2°55.979 19.3572 4.244363 30.906552 -0.652328
2010-07-07 08:08:32 51°17.746 2°55.986 19.3579 4.244363 30.906028 -0.652328
2010-07-07 08:08:37 51°17.748 2°55.994 19.3587 4.244363 30.906028 -0.652328
2010-07-07 08:08:43 51°17.749 2°56.003 19.3596 4.244363 30.905503 -0.617504
2010-07-07 08:08:47 51°17.75 2°56.009 19.3587 4.244257 30.90517 -0.652328
2010-07-07 08:08:52 51°17.752 2°56.016 19.3595 4.244468 30.90636 -0.652328
2010-07-07 08:08:57 51°17.754 2°56.024 19.36 4.244468 30.90636 -0.652328
2010-07-07 08:09:02 51°17.755 2°56.031 19.36 4.244363 30.905503 -0.617504
2010-07-07 08:09:07 51°17.756 2°56.039 19.36 4.244679 30.90755 -0.617504
2010-07-07 08:09:12 51°17.758 2°56.047 19.3594 4.244363 30.904454 -0.687152
2010-07-07 08:09:17 51°17.759 2°56.055 19.3595 4.244468 30.904786 -0.687152
2010-07-07 08:09:22 51°17.76 2°56.063 19.3595 4.244468 30.904262 -0.652328
2010-07-07 08:09:27 51°17.762 2°56.071 19.3599 4.244468 30.904262 -0.652328
2010-07-07 08:09:32 51°17.763 2°56.079 19.3594 4.244574 30.905119 -0.617504
2010-07-07 08:09:37 51°17.765 2°56.088 19.3596 4.244574 30.904594 -0.652328
2010-07-07 08:09:43 51°17.766 2°56.097 19.3596 4.244679 30.905452 -0.617504
2010-07-07 08:09:47 51°17.768 2°56.104 19.3592 4.244574 30.90407 -0.617504
2010-07-07 08:09:52 51°17.769 2°56.113 19.3591 4.244679 30.905452 -0.652328
2010-07-07 08:09:57 51°17.77 2°56.121 19.3592 4.244679 30.905452 -0.652328
2010-07-07 08:10:02 51°17.772 2°56.13 19.3588 4.244363 30.902356 -0.617504
2010-07-07 08:10:07 51°17.773 2°56.139 19.3601 4.244468 30.903737 -0.652328
2010-07-07 08:10:12 51°17.774 2°56.147 19.3589 4.244468 30.903737 -0.652328
2010-07-07 08:10:17 51°17.775 2°56.156 19.3594 4.244574 30.904594 -0.652328
2010-07-07 08:10:22 51°17.776 2°56.165 19.3612 4.244574 30.904594 -0.617504
2010-07-07 08:10:27 51°17.777 2°56.174 19.3616 4.244574 30.904594 -0.617504
2010-07-07 08:10:31 51°17.778 2°56.181 19.3618 4.244468 30.904262 -0.617504
2010-07-07 08:10:37 51°17.778 2°56.191 19.3627 4.244574 30.90407 -0.652328
2010-07-07 08:10:42 51°17.778 2°56.2 19.3625 4.244468 30.903737 -0.652328
2010-07-07 08:10:47 51°17.778 2°56.208 19.3609 4.244468 30.904262 -0.617504
2010-07-07 08:10:52 51°17.778 2°56.217 19.3628 4.244363 30.903405 -0.652328
2010-07-07 08:10:57 51°17.778 2°56.225 19.3623 4.244363 30.903405 -0.652328
2010-07-07 08:11:02 51°17.778 2°56.233 19.3626 4.244363 30.903405 -0.687152
2010-07-07 08:11:07 51°17.777 2°56.241 19.3636 4.244468 30.903213 -0.652328
2010-07-07 08:11:11 51°17.777 2°56.248 19.3644 4.244574 30.903545 -0.652328
2010-07-07 08:11:17 51°17.776 2°56.258 19.3654 4.244468 30.902164 -0.687152
2010-07-07 08:11:22 51°17.775 2°56.265 19.3671 4.244679 30.903878 -0.652328
2010-07-07 08:11:27 51°17.774 2°56.273 19.3671 4.244679 30.903878 -0.652328
2010-07-07 08:11:32 51°17.773 2°56.281 19.368 4.24489 30.905068 -0.652328
2010-07-07 08:11:37 51°17.772 2°56.289 19.3672 4.244679 30.903353 -0.652328
2010-07-07 08:11:42 51°17.77 2°56.297 19.3667 4.244679 30.903353 -0.652328
2010-07-07 08:11:47 51°17.769 2°56.304 19.3664 4.244679 30.902304 -0.652328
2010-07-07 08:11:51 51°17.768 2°56.31 19.3672 4.244574 30.901447 -0.617504
2010-07-07 08:11:57 51°17.766 2°56.319 19.3675 4.244574 30.901447 -0.617504
2010-07-07 08:12:02 51°17.764 2°56.327 19.3661 4.244574 30.900923 -0.617504
2010-07-07 08:12:07 51°17.762 2°56.335 19.3653 4.244363 30.899209 -0.652328
2010-07-07 08:12:12 51°17.76 2°56.343 19.3642 4.244468 30.899017 -0.652328
2010-07-07 08:12:17 51°17.757 2°56.351 19.3632 4.244468 30.898493 -0.652328
2010-07-07 08:12:22 51°17.754 2°56.359 19.3632 4.244363 30.897635 -0.617504
2010-07-07 08:12:27 51°17.751 2°56.367 19.3631 4.244363 30.897635 -0.617504
2010-07-07 08:12:32 51°17.748 2°56.375 19.3642 4.244363 30.897111 -0.617504
2010-07-07 08:12:37 51°17.744 2°56.383 19.3639 4.244257 30.896778 -0.652328
2010-07-07 08:12:43 51°17.74 2°56.392 19.3648 4.244468 30.898493 -0.652328
2010-07-07 08:12:47 51°17.737 2°56.397 19.3642 4.244468 30.897968 -0.687152
2010-07-07 08:12:52 51°17.733 2°56.404 19.3654 4.244468 30.899017 -0.652328
2010-07-07 08:12:57 51°17.729 2°56.41 19.3661 4.244468 30.899017 -0.652328
2010-07-07 08:13:02 51°17.726 2°56.415 19.3684 4.244574 30.899874 -0.652328
2010-07-07 08:13:07 51°17.722 2°56.421 19.3696 4.244468 30.900066 -0.687152
2010-07-07 08:13:12 51°17.719 2°56.425 19.3704 4.244679 30.901255 -0.617504
2010-07-07 08:13:17 51°17.716 2°56.43 19.371 4.244679 30.90178 -0.652328
2010-07-07 08:13:22 51°17.713 2°56.435 19.3732 4.244679 30.90178 -0.652328
2010-07-07 08:13:27 51°17.71 2°56.439 19.3726 4.244679 30.901255 -0.652328